<?xml version="1.0" encoding="UTF-8" standalone="no" ?>
<gpx xmlns="http://www.topografix.com/GPX/1/1" xmlns:xsi="http://www.w3.org/2001/XMLSchema-instance" xsi:schemaLocation="http://www.topografix.com/GPX/1/1 http://www.topografix.com/GPX/1/1/gpx.xsd" version="1.1" creator="VisuGPX - https://www.visugpx.com">
  <metadata>
    <name>Vexin Haravilliers Chavençon MA-Rando-2020-09-17</name>
  </metadata>
  <trk>
    <name><![CDATA[MA-Rando-2020-09-17-170413]]></name>
    <trkseg>
      <trkpt lat="49.17342" lon="2.04524">
        <ele>147</ele>
        <time>2020-09-17T12:05:30Z</time>
      </trkpt>
      <trkpt lat="49.17334" lon="2.04517">
        <ele>147</ele>
        <time>2020-09-17T12:05:42Z</time>
      </trkpt>
      <trkpt lat="49.17331" lon="2.04503">
        <ele>148</ele>
        <time>2020-09-17T12:05:51Z</time>
      </trkpt>
      <trkpt lat="49.17328" lon="2.04488">
        <ele>148</ele>
        <time>2020-09-17T12:06:00Z</time>
      </trkpt>
      <trkpt lat="49.17325" lon="2.04473">
        <ele>148</ele>
        <time>2020-09-17T12:06:08Z</time>
      </trkpt>
      <trkpt lat="49.17324" lon="2.04458">
        <ele>148</ele>
        <time>2020-09-17T12:06:17Z</time>
      </trkpt>
      <trkpt lat="49.17324" lon="2.04442">
        <ele>148</ele>
        <time>2020-09-17T12:06:26Z</time>
      </trkpt>
      <trkpt lat="49.17321" lon="2.04426">
        <ele>148</ele>
        <time>2020-09-17T12:06:34Z</time>
      </trkpt>
      <trkpt lat="49.17321" lon="2.04409">
        <ele>149</ele>
        <time>2020-09-17T12:06:44Z</time>
      </trkpt>
      <trkpt lat="49.17319" lon="2.04393">
        <ele>150</ele>
        <time>2020-09-17T12:06:52Z</time>
      </trkpt>
      <trkpt lat="49.17318" lon="2.04378">
        <ele>150</ele>
        <time>2020-09-17T12:07:00Z</time>
      </trkpt>
      <trkpt lat="49.17315" lon="2.04363">
        <ele>150</ele>
        <time>2020-09-17T12:07:07Z</time>
      </trkpt>
      <trkpt lat="49.17312" lon="2.04347">
        <ele>151</ele>
        <time>2020-09-17T12:07:14Z</time>
      </trkpt>
      <trkpt lat="49.1731" lon="2.04333">
        <ele>153</ele>
        <time>2020-09-17T12:07:22Z</time>
      </trkpt>
      <trkpt lat="49.17306" lon="2.04318">
        <ele>154</ele>
        <time>2020-09-17T12:07:31Z</time>
      </trkpt>
      <trkpt lat="49.17302" lon="2.04305">
        <ele>154</ele>
        <time>2020-09-17T12:07:39Z</time>
      </trkpt>
      <trkpt lat="49.17302" lon="2.04289">
        <ele>155</ele>
        <time>2020-09-17T12:07:48Z</time>
      </trkpt>
      <trkpt lat="49.17302" lon="2.04274">
        <ele>155</ele>
        <time>2020-09-17T12:07:56Z</time>
      </trkpt>
      <trkpt lat="49.17303" lon="2.04259">
        <ele>155</ele>
        <time>2020-09-17T12:08:03Z</time>
      </trkpt>
      <trkpt lat="49.17305" lon="2.04244">
        <ele>158</ele>
        <time>2020-09-17T12:08:09Z</time>
      </trkpt>
      <trkpt lat="49.17302" lon="2.0423">
        <ele>159</ele>
        <time>2020-09-17T12:08:15Z</time>
      </trkpt>
      <trkpt lat="49.173" lon="2.04215">
        <ele>159</ele>
        <time>2020-09-17T12:08:24Z</time>
      </trkpt>
      <trkpt lat="49.17298" lon="2.042">
        <ele>160</ele>
        <time>2020-09-17T12:08:33Z</time>
      </trkpt>
      <trkpt lat="49.17294" lon="2.04185">
        <ele>160</ele>
        <time>2020-09-17T12:08:40Z</time>
      </trkpt>
      <trkpt lat="49.17294" lon="2.0417">
        <ele>160</ele>
        <time>2020-09-17T12:08:49Z</time>
      </trkpt>
      <trkpt lat="49.17291" lon="2.04157">
        <ele>162</ele>
        <time>2020-09-17T12:08:56Z</time>
      </trkpt>
      <trkpt lat="49.17289" lon="2.04139">
        <ele>163</ele>
        <time>2020-09-17T12:09:03Z</time>
      </trkpt>
      <trkpt lat="49.17289" lon="2.04125">
        <ele>163</ele>
        <time>2020-09-17T12:09:10Z</time>
      </trkpt>
      <trkpt lat="49.17296" lon="2.04116">
        <ele>163</ele>
        <time>2020-09-17T12:09:19Z</time>
      </trkpt>
      <trkpt lat="49.17305" lon="2.04107">
        <ele>163</ele>
        <time>2020-09-17T12:09:28Z</time>
      </trkpt>
      <trkpt lat="49.17313" lon="2.04102">
        <ele>162</ele>
        <time>2020-09-17T12:09:34Z</time>
      </trkpt>
      <trkpt lat="49.17324" lon="2.04095">
        <ele>162</ele>
        <time>2020-09-17T12:09:41Z</time>
      </trkpt>
      <trkpt lat="49.17334" lon="2.04093">
        <ele>160</ele>
        <time>2020-09-17T12:09:48Z</time>
      </trkpt>
      <trkpt lat="49.17344" lon="2.04095">
        <ele>159</ele>
        <time>2020-09-17T12:09:56Z</time>
      </trkpt>
      <trkpt lat="49.17354" lon="2.04091">
        <ele>158</ele>
        <time>2020-09-17T12:10:03Z</time>
      </trkpt>
      <trkpt lat="49.17364" lon="2.04091">
        <ele>158</ele>
        <time>2020-09-17T12:10:10Z</time>
      </trkpt>
      <trkpt lat="49.17373" lon="2.04085">
        <ele>157</ele>
        <time>2020-09-17T12:10:18Z</time>
      </trkpt>
      <trkpt lat="49.17381" lon="2.04076">
        <ele>159</ele>
        <time>2020-09-17T12:10:24Z</time>
      </trkpt>
      <trkpt lat="49.17389" lon="2.04065">
        <ele>158</ele>
        <time>2020-09-17T12:10:32Z</time>
      </trkpt>
      <trkpt lat="49.17395" lon="2.04053">
        <ele>159</ele>
        <time>2020-09-17T12:10:39Z</time>
      </trkpt>
      <trkpt lat="49.17402" lon="2.04041">
        <ele>159</ele>
        <time>2020-09-17T12:10:46Z</time>
      </trkpt>
      <trkpt lat="49.17411" lon="2.04037">
        <ele>159</ele>
        <time>2020-09-17T12:10:54Z</time>
      </trkpt>
      <trkpt lat="49.17421" lon="2.04036">
        <ele>156</ele>
        <time>2020-09-17T12:11:01Z</time>
      </trkpt>
      <trkpt lat="49.1743" lon="2.04039">
        <ele>156</ele>
        <time>2020-09-17T12:11:10Z</time>
      </trkpt>
      <trkpt lat="49.1744" lon="2.04038">
        <ele>155</ele>
        <time>2020-09-17T12:11:17Z</time>
      </trkpt>
      <trkpt lat="49.17451" lon="2.04036">
        <ele>155</ele>
        <time>2020-09-17T12:11:23Z</time>
      </trkpt>
      <trkpt lat="49.17461" lon="2.04037">
        <ele>155</ele>
        <time>2020-09-17T12:11:31Z</time>
      </trkpt>
      <trkpt lat="49.17471" lon="2.0403">
        <ele>155</ele>
        <time>2020-09-17T12:11:39Z</time>
      </trkpt>
      <trkpt lat="49.17481" lon="2.04031">
        <ele>154</ele>
        <time>2020-09-17T12:11:47Z</time>
      </trkpt>
      <trkpt lat="49.17493" lon="2.04033">
        <ele>154</ele>
        <time>2020-09-17T12:11:55Z</time>
      </trkpt>
      <trkpt lat="49.17502" lon="2.04028">
        <ele>152</ele>
        <time>2020-09-17T12:12:03Z</time>
      </trkpt>
      <trkpt lat="49.17504" lon="2.04011">
        <ele>153</ele>
        <time>2020-09-17T12:12:09Z</time>
      </trkpt>
      <trkpt lat="49.17504" lon="2.03996">
        <ele>154</ele>
        <time>2020-09-17T12:12:16Z</time>
      </trkpt>
      <trkpt lat="49.17501" lon="2.03983">
        <ele>153</ele>
        <time>2020-09-17T12:12:24Z</time>
      </trkpt>
      <trkpt lat="49.17498" lon="2.03968">
        <ele>157</ele>
        <time>2020-09-17T12:12:33Z</time>
      </trkpt>
      <trkpt lat="49.17494" lon="2.03954">
        <ele>157</ele>
        <time>2020-09-17T12:12:42Z</time>
      </trkpt>
      <trkpt lat="49.17498" lon="2.03937">
        <ele>158</ele>
        <time>2020-09-17T12:12:58Z</time>
      </trkpt>
      <trkpt lat="49.175" lon="2.03923">
        <ele>156</ele>
        <time>2020-09-17T12:13:02Z</time>
      </trkpt>
      <trkpt lat="49.17504" lon="2.03904">
        <ele>156</ele>
        <time>2020-09-17T12:13:07Z</time>
      </trkpt>
      <trkpt lat="49.17505" lon="2.03887">
        <ele>155</ele>
        <time>2020-09-17T12:13:13Z</time>
      </trkpt>
      <trkpt lat="49.17508" lon="2.0387">
        <ele>155</ele>
        <time>2020-09-17T12:13:19Z</time>
      </trkpt>
      <trkpt lat="49.17509" lon="2.03855">
        <ele>155</ele>
        <time>2020-09-17T12:13:25Z</time>
      </trkpt>
      <trkpt lat="49.17511" lon="2.0384">
        <ele>156</ele>
        <time>2020-09-17T12:13:32Z</time>
      </trkpt>
      <trkpt lat="49.17512" lon="2.03826">
        <ele>157</ele>
        <time>2020-09-17T12:13:38Z</time>
      </trkpt>
      <trkpt lat="49.17514" lon="2.03811">
        <ele>156</ele>
        <time>2020-09-17T12:13:45Z</time>
      </trkpt>
      <trkpt lat="49.17517" lon="2.03797">
        <ele>156</ele>
        <time>2020-09-17T12:13:52Z</time>
      </trkpt>
      <trkpt lat="49.1752" lon="2.03781">
        <ele>157</ele>
        <time>2020-09-17T12:14:00Z</time>
      </trkpt>
      <trkpt lat="49.17523" lon="2.03765">
        <ele>157</ele>
        <time>2020-09-17T12:14:08Z</time>
      </trkpt>
      <trkpt lat="49.17526" lon="2.03749">
        <ele>158</ele>
        <time>2020-09-17T12:14:16Z</time>
      </trkpt>
      <trkpt lat="49.17526" lon="2.03734">
        <ele>158</ele>
        <time>2020-09-17T12:14:24Z</time>
      </trkpt>
      <trkpt lat="49.17529" lon="2.03719">
        <ele>158</ele>
        <time>2020-09-17T12:14:33Z</time>
      </trkpt>
      <trkpt lat="49.17533" lon="2.03705">
        <ele>158</ele>
        <time>2020-09-17T12:14:41Z</time>
      </trkpt>
      <trkpt lat="49.17534" lon="2.03689">
        <ele>158</ele>
        <time>2020-09-17T12:14:48Z</time>
      </trkpt>
      <trkpt lat="49.17533" lon="2.03673">
        <ele>158</ele>
        <time>2020-09-17T12:14:54Z</time>
      </trkpt>
      <trkpt lat="49.17535" lon="2.03656">
        <ele>159</ele>
        <time>2020-09-17T12:15:03Z</time>
      </trkpt>
      <trkpt lat="49.17536" lon="2.0364">
        <ele>159</ele>
        <time>2020-09-17T12:15:11Z</time>
      </trkpt>
      <trkpt lat="49.17538" lon="2.03626">
        <ele>159</ele>
        <time>2020-09-17T12:15:19Z</time>
      </trkpt>
      <trkpt lat="49.17539" lon="2.0361">
        <ele>159</ele>
        <time>2020-09-17T12:15:27Z</time>
      </trkpt>
      <trkpt lat="49.17538" lon="2.03595">
        <ele>159</ele>
        <time>2020-09-17T12:15:34Z</time>
      </trkpt>
      <trkpt lat="49.17539" lon="2.03579">
        <ele>160</ele>
        <time>2020-09-17T12:15:43Z</time>
      </trkpt>
      <trkpt lat="49.1754" lon="2.03565">
        <ele>160</ele>
        <time>2020-09-17T12:15:50Z</time>
      </trkpt>
      <trkpt lat="49.17544" lon="2.03549">
        <ele>161</ele>
        <time>2020-09-17T12:15:58Z</time>
      </trkpt>
      <trkpt lat="49.17544" lon="2.03533">
        <ele>161</ele>
        <time>2020-09-17T12:16:06Z</time>
      </trkpt>
      <trkpt lat="49.17544" lon="2.03518">
        <ele>161</ele>
        <time>2020-09-17T12:16:12Z</time>
      </trkpt>
      <trkpt lat="49.17547" lon="2.03503">
        <ele>161</ele>
        <time>2020-09-17T12:16:20Z</time>
      </trkpt>
      <trkpt lat="49.17551" lon="2.0349">
        <ele>162</ele>
        <time>2020-09-17T12:16:27Z</time>
      </trkpt>
      <trkpt lat="49.17555" lon="2.03476">
        <ele>162</ele>
        <time>2020-09-17T12:16:36Z</time>
      </trkpt>
      <trkpt lat="49.17559" lon="2.03458">
        <ele>163</ele>
        <time>2020-09-17T12:16:44Z</time>
      </trkpt>
      <trkpt lat="49.17565" lon="2.03446">
        <ele>163</ele>
        <time>2020-09-17T12:16:51Z</time>
      </trkpt>
      <trkpt lat="49.17571" lon="2.03434">
        <ele>162</ele>
        <time>2020-09-17T12:16:59Z</time>
      </trkpt>
      <trkpt lat="49.17579" lon="2.03418">
        <ele>161</ele>
        <time>2020-09-17T12:17:07Z</time>
      </trkpt>
      <trkpt lat="49.17582" lon="2.03405">
        <ele>162</ele>
        <time>2020-09-17T12:17:15Z</time>
      </trkpt>
      <trkpt lat="49.17585" lon="2.03391">
        <ele>161</ele>
        <time>2020-09-17T12:17:22Z</time>
      </trkpt>
      <trkpt lat="49.17589" lon="2.03376">
        <ele>162</ele>
        <time>2020-09-17T12:17:29Z</time>
      </trkpt>
      <trkpt lat="49.17592" lon="2.0336">
        <ele>162</ele>
        <time>2020-09-17T12:17:37Z</time>
      </trkpt>
      <trkpt lat="49.17596" lon="2.03346">
        <ele>163</ele>
        <time>2020-09-17T12:17:45Z</time>
      </trkpt>
      <trkpt lat="49.17599" lon="2.03333">
        <ele>165</ele>
        <time>2020-09-17T12:17:51Z</time>
      </trkpt>
      <trkpt lat="49.17604" lon="2.03319">
        <ele>165</ele>
        <time>2020-09-17T12:17:58Z</time>
      </trkpt>
      <trkpt lat="49.17609" lon="2.03305">
        <ele>165</ele>
        <time>2020-09-17T12:18:07Z</time>
      </trkpt>
      <trkpt lat="49.17612" lon="2.03291">
        <ele>165</ele>
        <time>2020-09-17T12:18:14Z</time>
      </trkpt>
      <trkpt lat="49.17615" lon="2.03276">
        <ele>165</ele>
        <time>2020-09-17T12:18:21Z</time>
      </trkpt>
      <trkpt lat="49.17621" lon="2.03262">
        <ele>166</ele>
        <time>2020-09-17T12:18:30Z</time>
      </trkpt>
      <trkpt lat="49.17626" lon="2.03249">
        <ele>168</ele>
        <time>2020-09-17T12:18:39Z</time>
      </trkpt>
      <trkpt lat="49.17627" lon="2.03232">
        <ele>168</ele>
        <time>2020-09-17T12:18:46Z</time>
      </trkpt>
      <trkpt lat="49.17631" lon="2.03216">
        <ele>168</ele>
        <time>2020-09-17T12:18:53Z</time>
      </trkpt>
      <trkpt lat="49.17636" lon="2.03202">
        <ele>169</ele>
        <time>2020-09-17T12:19:02Z</time>
      </trkpt>
      <trkpt lat="49.17641" lon="2.03189">
        <ele>169</ele>
        <time>2020-09-17T12:19:08Z</time>
      </trkpt>
      <trkpt lat="49.17647" lon="2.03178">
        <ele>170</ele>
        <time>2020-09-17T12:19:15Z</time>
      </trkpt>
      <trkpt lat="49.17651" lon="2.03162">
        <ele>172</ele>
        <time>2020-09-17T12:19:23Z</time>
      </trkpt>
      <trkpt lat="49.17655" lon="2.03148">
        <ele>171</ele>
        <time>2020-09-17T12:19:30Z</time>
      </trkpt>
      <trkpt lat="49.17662" lon="2.03137">
        <ele>171</ele>
        <time>2020-09-17T12:19:38Z</time>
      </trkpt>
      <trkpt lat="49.17668" lon="2.03125">
        <ele>172</ele>
        <time>2020-09-17T12:19:45Z</time>
      </trkpt>
      <trkpt lat="49.17675" lon="2.03112">
        <ele>172</ele>
        <time>2020-09-17T12:19:53Z</time>
      </trkpt>
      <trkpt lat="49.17681" lon="2.03099">
        <ele>172</ele>
        <time>2020-09-17T12:20:02Z</time>
      </trkpt>
      <trkpt lat="49.17687" lon="2.03085">
        <ele>172</ele>
        <time>2020-09-17T12:20:08Z</time>
      </trkpt>
      <trkpt lat="49.17692" lon="2.03072">
        <ele>170</ele>
        <time>2020-09-17T12:20:15Z</time>
      </trkpt>
      <trkpt lat="49.17698" lon="2.0306">
        <ele>169</ele>
        <time>2020-09-17T12:20:24Z</time>
      </trkpt>
      <trkpt lat="49.17705" lon="2.03047">
        <ele>168</ele>
        <time>2020-09-17T12:20:31Z</time>
      </trkpt>
      <trkpt lat="49.17711" lon="2.03036">
        <ele>168</ele>
        <time>2020-09-17T12:20:38Z</time>
      </trkpt>
      <trkpt lat="49.17719" lon="2.03023">
        <ele>168</ele>
        <time>2020-09-17T12:20:45Z</time>
      </trkpt>
      <trkpt lat="49.17722" lon="2.03009">
        <ele>167</ele>
        <time>2020-09-17T12:20:52Z</time>
      </trkpt>
      <trkpt lat="49.17726" lon="2.02992">
        <ele>167</ele>
        <time>2020-09-17T12:21:00Z</time>
      </trkpt>
      <trkpt lat="49.17729" lon="2.02976">
        <ele>167</ele>
        <time>2020-09-17T12:21:08Z</time>
      </trkpt>
      <trkpt lat="49.17733" lon="2.02962">
        <ele>167</ele>
        <time>2020-09-17T12:21:14Z</time>
      </trkpt>
      <trkpt lat="49.17735" lon="2.02948">
        <ele>167</ele>
        <time>2020-09-17T12:21:22Z</time>
      </trkpt>
      <trkpt lat="49.17739" lon="2.02934">
        <ele>167</ele>
        <time>2020-09-17T12:21:28Z</time>
      </trkpt>
      <trkpt lat="49.17745" lon="2.02922">
        <ele>167</ele>
        <time>2020-09-17T12:21:35Z</time>
      </trkpt>
      <trkpt lat="49.17749" lon="2.02905">
        <ele>167</ele>
        <time>2020-09-17T12:21:43Z</time>
      </trkpt>
      <trkpt lat="49.17752" lon="2.02892">
        <ele>166</ele>
        <time>2020-09-17T12:21:49Z</time>
      </trkpt>
      <trkpt lat="49.17756" lon="2.02877">
        <ele>165</ele>
        <time>2020-09-17T12:21:57Z</time>
      </trkpt>
      <trkpt lat="49.17757" lon="2.02863">
        <ele>166</ele>
        <time>2020-09-17T12:22:03Z</time>
      </trkpt>
      <trkpt lat="49.17759" lon="2.02848">
        <ele>166</ele>
        <time>2020-09-17T12:22:11Z</time>
      </trkpt>
      <trkpt lat="49.17758" lon="2.02832">
        <ele>167</ele>
        <time>2020-09-17T12:22:17Z</time>
      </trkpt>
      <trkpt lat="49.17759" lon="2.02816">
        <ele>167</ele>
        <time>2020-09-17T12:22:25Z</time>
      </trkpt>
      <trkpt lat="49.17758" lon="2.028">
        <ele>167</ele>
        <time>2020-09-17T12:22:33Z</time>
      </trkpt>
      <trkpt lat="49.17756" lon="2.02786">
        <ele>167</ele>
        <time>2020-09-17T12:22:40Z</time>
      </trkpt>
      <trkpt lat="49.17758" lon="2.02771">
        <ele>167</ele>
        <time>2020-09-17T12:22:48Z</time>
      </trkpt>
      <trkpt lat="49.17758" lon="2.02755">
        <ele>167</ele>
        <time>2020-09-17T12:22:54Z</time>
      </trkpt>
      <trkpt lat="49.17761" lon="2.02739">
        <ele>167</ele>
        <time>2020-09-17T12:23:01Z</time>
      </trkpt>
      <trkpt lat="49.17764" lon="2.02724">
        <ele>167</ele>
        <time>2020-09-17T12:23:09Z</time>
      </trkpt>
      <trkpt lat="49.17768" lon="2.0271">
        <ele>167</ele>
        <time>2020-09-17T12:23:15Z</time>
      </trkpt>
      <trkpt lat="49.17772" lon="2.02695">
        <ele>167</ele>
        <time>2020-09-17T12:23:24Z</time>
      </trkpt>
      <trkpt lat="49.17778" lon="2.02682">
        <ele>167</ele>
        <time>2020-09-17T12:23:32Z</time>
      </trkpt>
      <trkpt lat="49.17781" lon="2.02668">
        <ele>167</ele>
        <time>2020-09-17T12:23:41Z</time>
      </trkpt>
      <trkpt lat="49.17785" lon="2.02654">
        <ele>167</ele>
        <time>2020-09-17T12:23:50Z</time>
      </trkpt>
      <trkpt lat="49.17787" lon="2.02638">
        <ele>167</ele>
        <time>2020-09-17T12:23:59Z</time>
      </trkpt>
      <trkpt lat="49.17789" lon="2.02621">
        <ele>167</ele>
        <time>2020-09-17T12:24:07Z</time>
      </trkpt>
      <trkpt lat="49.17789" lon="2.02606">
        <ele>167</ele>
        <time>2020-09-17T12:24:13Z</time>
      </trkpt>
      <trkpt lat="49.17791" lon="2.0259">
        <ele>167</ele>
        <time>2020-09-17T12:24:22Z</time>
      </trkpt>
      <trkpt lat="49.17793" lon="2.02575">
        <ele>169</ele>
        <time>2020-09-17T12:24:29Z</time>
      </trkpt>
      <trkpt lat="49.17796" lon="2.02562">
        <ele>169</ele>
        <time>2020-09-17T12:24:38Z</time>
      </trkpt>
      <trkpt lat="49.17805" lon="2.02555">
        <ele>169</ele>
        <time>2020-09-17T12:24:45Z</time>
      </trkpt>
      <trkpt lat="49.17813" lon="2.02546">
        <ele>170</ele>
        <time>2020-09-17T12:24:52Z</time>
      </trkpt>
      <trkpt lat="49.17821" lon="2.02536">
        <ele>170</ele>
        <time>2020-09-17T12:25:00Z</time>
      </trkpt>
      <trkpt lat="49.17828" lon="2.02527">
        <ele>171</ele>
        <time>2020-09-17T12:25:07Z</time>
      </trkpt>
      <trkpt lat="49.17835" lon="2.02514">
        <ele>175</ele>
        <time>2020-09-17T12:25:14Z</time>
      </trkpt>
      <trkpt lat="49.17842" lon="2.02503">
        <ele>175</ele>
        <time>2020-09-17T12:25:21Z</time>
      </trkpt>
      <trkpt lat="49.17847" lon="2.0249">
        <ele>179</ele>
        <time>2020-09-17T12:25:28Z</time>
      </trkpt>
      <trkpt lat="49.17848" lon="2.02474">
        <ele>181</ele>
        <time>2020-09-17T12:25:35Z</time>
      </trkpt>
      <trkpt lat="49.17847" lon="2.02459">
        <ele>182</ele>
        <time>2020-09-17T12:25:42Z</time>
      </trkpt>
      <trkpt lat="49.17847" lon="2.02442">
        <ele>182</ele>
        <time>2020-09-17T12:25:51Z</time>
      </trkpt>
      <trkpt lat="49.17847" lon="2.02426">
        <ele>183</ele>
        <time>2020-09-17T12:25:59Z</time>
      </trkpt>
      <trkpt lat="49.17844" lon="2.02412">
        <ele>185</ele>
        <time>2020-09-17T12:26:05Z</time>
      </trkpt>
      <trkpt lat="49.17842" lon="2.02396">
        <ele>186</ele>
        <time>2020-09-17T12:26:13Z</time>
      </trkpt>
      <trkpt lat="49.17838" lon="2.02381">
        <ele>187</ele>
        <time>2020-09-17T12:26:21Z</time>
      </trkpt>
      <trkpt lat="49.17836" lon="2.02366">
        <ele>187</ele>
        <time>2020-09-17T12:26:29Z</time>
      </trkpt>
      <trkpt lat="49.1784" lon="2.02351">
        <ele>187</ele>
        <time>2020-09-17T12:26:38Z</time>
      </trkpt>
      <trkpt lat="49.17843" lon="2.02336">
        <ele>187</ele>
        <time>2020-09-17T12:26:45Z</time>
      </trkpt>
      <trkpt lat="49.17849" lon="2.02325">
        <ele>189</ele>
        <time>2020-09-17T12:26:52Z</time>
      </trkpt>
      <trkpt lat="49.17855" lon="2.02312">
        <ele>190</ele>
        <time>2020-09-17T12:26:58Z</time>
      </trkpt>
      <trkpt lat="49.1786" lon="2.023">
        <ele>191</ele>
        <time>2020-09-17T12:27:04Z</time>
      </trkpt>
      <trkpt lat="49.17864" lon="2.02286">
        <ele>191</ele>
        <time>2020-09-17T12:27:11Z</time>
      </trkpt>
      <trkpt lat="49.17868" lon="2.02273">
        <ele>192</ele>
        <time>2020-09-17T12:27:18Z</time>
      </trkpt>
      <trkpt lat="49.17873" lon="2.0226">
        <ele>192</ele>
        <time>2020-09-17T12:27:26Z</time>
      </trkpt>
      <trkpt lat="49.17878" lon="2.02246">
        <ele>194</ele>
        <time>2020-09-17T12:27:38Z</time>
      </trkpt>
      <trkpt lat="49.17883" lon="2.02233">
        <ele>195</ele>
        <time>2020-09-17T12:27:45Z</time>
      </trkpt>
      <trkpt lat="49.17886" lon="2.02217">
        <ele>195</ele>
        <time>2020-09-17T12:27:52Z</time>
      </trkpt>
      <trkpt lat="49.17883" lon="2.02201">
        <ele>195</ele>
        <time>2020-09-17T12:27:59Z</time>
      </trkpt>
      <trkpt lat="49.17879" lon="2.02187">
        <ele>195</ele>
        <time>2020-09-17T12:28:08Z</time>
      </trkpt>
      <trkpt lat="49.17873" lon="2.02173">
        <ele>194</ele>
        <time>2020-09-17T12:28:18Z</time>
      </trkpt>
      <trkpt lat="49.17869" lon="2.02157">
        <ele>195</ele>
        <time>2020-09-17T12:28:29Z</time>
      </trkpt>
      <trkpt lat="49.17864" lon="2.02143">
        <ele>195</ele>
        <time>2020-09-17T12:28:35Z</time>
      </trkpt>
      <trkpt lat="49.17862" lon="2.02127">
        <ele>195</ele>
        <time>2020-09-17T12:28:44Z</time>
      </trkpt>
      <trkpt lat="49.17861" lon="2.02109">
        <ele>195</ele>
        <time>2020-09-17T12:28:52Z</time>
      </trkpt>
      <trkpt lat="49.17863" lon="2.02094">
        <ele>195</ele>
        <time>2020-09-17T12:28:58Z</time>
      </trkpt>
      <trkpt lat="49.17863" lon="2.02077">
        <ele>198</ele>
        <time>2020-09-17T12:29:06Z</time>
      </trkpt>
      <trkpt lat="49.1786" lon="2.02062">
        <ele>198</ele>
        <time>2020-09-17T12:29:13Z</time>
      </trkpt>
      <trkpt lat="49.17855" lon="2.02049">
        <ele>199</ele>
        <time>2020-09-17T12:29:21Z</time>
      </trkpt>
      <trkpt lat="49.17849" lon="2.02036">
        <ele>199</ele>
        <time>2020-09-17T12:29:29Z</time>
      </trkpt>
      <trkpt lat="49.17842" lon="2.02026">
        <ele>199</ele>
        <time>2020-09-17T12:29:37Z</time>
      </trkpt>
      <trkpt lat="49.17835" lon="2.02016">
        <ele>199</ele>
        <time>2020-09-17T12:29:45Z</time>
      </trkpt>
      <trkpt lat="49.17826" lon="2.02008">
        <ele>195</ele>
        <time>2020-09-17T12:29:53Z</time>
      </trkpt>
      <trkpt lat="49.17816" lon="2.02003">
        <ele>193</ele>
        <time>2020-09-17T12:30:01Z</time>
      </trkpt>
      <trkpt lat="49.17807" lon="2.01995">
        <ele>196</ele>
        <time>2020-09-17T12:30:09Z</time>
      </trkpt>
      <trkpt lat="49.178" lon="2.01984">
        <ele>195</ele>
        <time>2020-09-17T12:30:21Z</time>
      </trkpt>
      <trkpt lat="49.17798" lon="2.01968">
        <ele>195</ele>
        <time>2020-09-17T12:30:29Z</time>
      </trkpt>
      <trkpt lat="49.17795" lon="2.01951">
        <ele>195</ele>
        <time>2020-09-17T12:30:35Z</time>
      </trkpt>
      <trkpt lat="49.17795" lon="2.01935">
        <ele>196</ele>
        <time>2020-09-17T12:30:43Z</time>
      </trkpt>
      <trkpt lat="49.17797" lon="2.0192">
        <ele>196</ele>
        <time>2020-09-17T12:30:51Z</time>
      </trkpt>
      <trkpt lat="49.17801" lon="2.01905">
        <ele>198</ele>
        <time>2020-09-17T12:30:58Z</time>
      </trkpt>
      <trkpt lat="49.17801" lon="2.0189">
        <ele>198</ele>
        <time>2020-09-17T12:31:07Z</time>
      </trkpt>
      <trkpt lat="49.17802" lon="2.01874">
        <ele>198</ele>
        <time>2020-09-17T12:31:16Z</time>
      </trkpt>
      <trkpt lat="49.17803" lon="2.01859">
        <ele>198</ele>
        <time>2020-09-17T12:31:26Z</time>
      </trkpt>
      <trkpt lat="49.17798" lon="2.01844">
        <ele>198</ele>
        <time>2020-09-17T12:31:38Z</time>
      </trkpt>
      <trkpt lat="49.17796" lon="2.01829">
        <ele>199</ele>
        <time>2020-09-17T12:31:44Z</time>
      </trkpt>
      <trkpt lat="49.17792" lon="2.01815">
        <ele>198</ele>
        <time>2020-09-17T12:31:53Z</time>
      </trkpt>
      <trkpt lat="49.17787" lon="2.01801">
        <ele>198</ele>
        <time>2020-09-17T12:31:59Z</time>
      </trkpt>
      <trkpt lat="49.17783" lon="2.01787">
        <ele>198</ele>
        <time>2020-09-17T12:32:07Z</time>
      </trkpt>
      <trkpt lat="49.17785" lon="2.01771">
        <ele>198</ele>
        <time>2020-09-17T12:32:17Z</time>
      </trkpt>
      <trkpt lat="49.17783" lon="2.01755">
        <ele>197</ele>
        <time>2020-09-17T12:32:22Z</time>
      </trkpt>
      <trkpt lat="49.17784" lon="2.0174">
        <ele>197</ele>
        <time>2020-09-17T12:32:29Z</time>
      </trkpt>
      <trkpt lat="49.17785" lon="2.01723">
        <ele>198</ele>
        <time>2020-09-17T12:32:38Z</time>
      </trkpt>
      <trkpt lat="49.1779" lon="2.0171">
        <ele>198</ele>
        <time>2020-09-17T12:32:43Z</time>
      </trkpt>
      <trkpt lat="49.17789" lon="2.01696">
        <ele>198</ele>
        <time>2020-09-17T12:32:50Z</time>
      </trkpt>
      <trkpt lat="49.17789" lon="2.01681">
        <ele>198</ele>
        <time>2020-09-17T12:32:58Z</time>
      </trkpt>
      <trkpt lat="49.17792" lon="2.01664">
        <ele>199</ele>
        <time>2020-09-17T12:33:04Z</time>
      </trkpt>
      <trkpt lat="49.17797" lon="2.01651">
        <ele>200</ele>
        <time>2020-09-17T12:33:09Z</time>
      </trkpt>
      <trkpt lat="49.17804" lon="2.01637">
        <ele>200</ele>
        <time>2020-09-17T12:33:15Z</time>
      </trkpt>
      <trkpt lat="49.1781" lon="2.01625">
        <ele>201</ele>
        <time>2020-09-17T12:33:21Z</time>
      </trkpt>
      <trkpt lat="49.17815" lon="2.01613">
        <ele>202</ele>
        <time>2020-09-17T12:33:30Z</time>
      </trkpt>
      <trkpt lat="49.17816" lon="2.01597">
        <ele>203</ele>
        <time>2020-09-17T12:33:39Z</time>
      </trkpt>
      <trkpt lat="49.17819" lon="2.01581">
        <ele>205</ele>
        <time>2020-09-17T12:33:45Z</time>
      </trkpt>
      <trkpt lat="49.17823" lon="2.01566">
        <ele>205</ele>
        <time>2020-09-17T12:33:51Z</time>
      </trkpt>
      <trkpt lat="49.17829" lon="2.01555">
        <ele>205</ele>
        <time>2020-09-17T12:33:56Z</time>
      </trkpt>
      <trkpt lat="49.17836" lon="2.01541">
        <ele>212</ele>
        <time>2020-09-17T12:34:03Z</time>
      </trkpt>
      <trkpt lat="49.17843" lon="2.0153">
        <ele>212</ele>
        <time>2020-09-17T12:34:11Z</time>
      </trkpt>
      <trkpt lat="49.17853" lon="2.01532">
        <ele>213</ele>
        <time>2020-09-17T12:34:23Z</time>
      </trkpt>
      <trkpt lat="49.17865" lon="2.01528">
        <ele>213</ele>
        <time>2020-09-17T12:36:36Z</time>
      </trkpt>
      <trkpt lat="49.17871" lon="2.01517">
        <ele>214</ele>
        <time>2020-09-17T12:36:45Z</time>
      </trkpt>
      <trkpt lat="49.17877" lon="2.01503">
        <ele>214</ele>
        <time>2020-09-17T12:36:52Z</time>
      </trkpt>
      <trkpt lat="49.17881" lon="2.01489">
        <ele>215</ele>
        <time>2020-09-17T12:36:59Z</time>
      </trkpt>
      <trkpt lat="49.17886" lon="2.01477">
        <ele>215</ele>
        <time>2020-09-17T12:37:08Z</time>
      </trkpt>
      <trkpt lat="49.17893" lon="2.01466">
        <ele>215</ele>
        <time>2020-09-17T12:37:17Z</time>
      </trkpt>
      <trkpt lat="49.17902" lon="2.0146">
        <ele>216</ele>
        <time>2020-09-17T12:37:26Z</time>
      </trkpt>
      <trkpt lat="49.1791" lon="2.01454">
        <ele>216</ele>
        <time>2020-09-17T12:37:36Z</time>
      </trkpt>
      <trkpt lat="49.17915" lon="2.01465">
        <ele>216</ele>
        <time>2020-09-17T12:37:45Z</time>
      </trkpt>
      <trkpt lat="49.17919" lon="2.01479">
        <ele>218</ele>
        <time>2020-09-17T12:37:53Z</time>
      </trkpt>
      <trkpt lat="49.17921" lon="2.01495">
        <ele>217</ele>
        <time>2020-09-17T12:38:01Z</time>
      </trkpt>
      <trkpt lat="49.17924" lon="2.0151">
        <ele>218</ele>
        <time>2020-09-17T12:38:09Z</time>
      </trkpt>
      <trkpt lat="49.1793" lon="2.01524">
        <ele>218</ele>
        <time>2020-09-17T12:38:17Z</time>
      </trkpt>
      <trkpt lat="49.17937" lon="2.01536">
        <ele>218</ele>
        <time>2020-09-17T12:38:25Z</time>
      </trkpt>
      <trkpt lat="49.17948" lon="2.0154">
        <ele>219</ele>
        <time>2020-09-17T12:38:32Z</time>
      </trkpt>
      <trkpt lat="49.17956" lon="2.01548">
        <ele>219</ele>
        <time>2020-09-17T12:38:39Z</time>
      </trkpt>
      <trkpt lat="49.17967" lon="2.0155">
        <ele>219</ele>
        <time>2020-09-17T12:38:45Z</time>
      </trkpt>
      <trkpt lat="49.17977" lon="2.01554">
        <ele>219</ele>
        <time>2020-09-17T12:38:54Z</time>
      </trkpt>
      <trkpt lat="49.17986" lon="2.01559">
        <ele>219</ele>
        <time>2020-09-17T12:39:03Z</time>
      </trkpt>
      <trkpt lat="49.17995" lon="2.01567">
        <ele>219</ele>
        <time>2020-09-17T12:39:10Z</time>
      </trkpt>
      <trkpt lat="49.18004" lon="2.01577">
        <ele>219</ele>
        <time>2020-09-17T12:39:17Z</time>
      </trkpt>
      <trkpt lat="49.18013" lon="2.01583">
        <ele>219</ele>
        <time>2020-09-17T12:39:25Z</time>
      </trkpt>
      <trkpt lat="49.18022" lon="2.01591">
        <ele>219</ele>
        <time>2020-09-17T12:39:33Z</time>
      </trkpt>
      <trkpt lat="49.18031" lon="2.01597">
        <ele>219</ele>
        <time>2020-09-17T12:39:39Z</time>
      </trkpt>
      <trkpt lat="49.1804" lon="2.01603">
        <ele>219</ele>
        <time>2020-09-17T12:39:47Z</time>
      </trkpt>
      <trkpt lat="49.1805" lon="2.01611">
        <ele>219</ele>
        <time>2020-09-17T12:39:55Z</time>
      </trkpt>
      <trkpt lat="49.18057" lon="2.01621">
        <ele>219</ele>
        <time>2020-09-17T12:40:01Z</time>
      </trkpt>
      <trkpt lat="49.18067" lon="2.01624">
        <ele>219</ele>
        <time>2020-09-17T12:40:07Z</time>
      </trkpt>
      <trkpt lat="49.18078" lon="2.01627">
        <ele>219</ele>
        <time>2020-09-17T12:40:15Z</time>
      </trkpt>
      <trkpt lat="49.18087" lon="2.01637">
        <ele>217</ele>
        <time>2020-09-17T12:40:23Z</time>
      </trkpt>
      <trkpt lat="49.18094" lon="2.01649">
        <ele>218</ele>
        <time>2020-09-17T12:40:32Z</time>
      </trkpt>
      <trkpt lat="49.18102" lon="2.01658">
        <ele>218</ele>
        <time>2020-09-17T12:40:39Z</time>
      </trkpt>
      <trkpt lat="49.18111" lon="2.01667">
        <ele>219</ele>
        <time>2020-09-17T12:40:46Z</time>
      </trkpt>
      <trkpt lat="49.18119" lon="2.01678">
        <ele>219</ele>
        <time>2020-09-17T12:40:53Z</time>
      </trkpt>
      <trkpt lat="49.18127" lon="2.01689">
        <ele>218</ele>
        <time>2020-09-17T12:40:59Z</time>
      </trkpt>
      <trkpt lat="49.1813" lon="2.01703">
        <ele>218</ele>
        <time>2020-09-17T12:41:06Z</time>
      </trkpt>
      <trkpt lat="49.18137" lon="2.01712">
        <ele>218</ele>
        <time>2020-09-17T12:41:13Z</time>
      </trkpt>
      <trkpt lat="49.18144" lon="2.01721">
        <ele>218</ele>
        <time>2020-09-17T12:41:19Z</time>
      </trkpt>
      <trkpt lat="49.18151" lon="2.01732">
        <ele>219</ele>
        <time>2020-09-17T12:41:27Z</time>
      </trkpt>
      <trkpt lat="49.18159" lon="2.01743">
        <ele>219</ele>
        <time>2020-09-17T12:41:34Z</time>
      </trkpt>
      <trkpt lat="49.18166" lon="2.01755">
        <ele>219</ele>
        <time>2020-09-17T12:41:42Z</time>
      </trkpt>
      <trkpt lat="49.18173" lon="2.01767">
        <ele>219</ele>
        <time>2020-09-17T12:41:50Z</time>
      </trkpt>
      <trkpt lat="49.18182" lon="2.01777">
        <ele>219</ele>
        <time>2020-09-17T12:41:58Z</time>
      </trkpt>
      <trkpt lat="49.1819" lon="2.01789">
        <ele>219</ele>
        <time>2020-09-17T12:42:06Z</time>
      </trkpt>
      <trkpt lat="49.18198" lon="2.01801">
        <ele>219</ele>
        <time>2020-09-17T12:42:14Z</time>
      </trkpt>
      <trkpt lat="49.18204" lon="2.01815">
        <ele>220</ele>
        <time>2020-09-17T12:42:21Z</time>
      </trkpt>
      <trkpt lat="49.18212" lon="2.01826">
        <ele>220</ele>
        <time>2020-09-17T12:42:29Z</time>
      </trkpt>
      <trkpt lat="49.18219" lon="2.01835">
        <ele>221</ele>
        <time>2020-09-17T12:42:36Z</time>
      </trkpt>
      <trkpt lat="49.18224" lon="2.0185">
        <ele>221</ele>
        <time>2020-09-17T12:42:45Z</time>
      </trkpt>
      <trkpt lat="49.18232" lon="2.01857">
        <ele>221</ele>
        <time>2020-09-17T12:42:51Z</time>
      </trkpt>
      <trkpt lat="49.1824" lon="2.01866">
        <ele>221</ele>
        <time>2020-09-17T12:42:59Z</time>
      </trkpt>
      <trkpt lat="49.18248" lon="2.01876">
        <ele>221</ele>
        <time>2020-09-17T12:43:05Z</time>
      </trkpt>
      <trkpt lat="49.18254" lon="2.01887">
        <ele>219</ele>
        <time>2020-09-17T12:43:12Z</time>
      </trkpt>
      <trkpt lat="49.1826" lon="2.01898">
        <ele>220</ele>
        <time>2020-09-17T12:43:20Z</time>
      </trkpt>
      <trkpt lat="49.18266" lon="2.0191">
        <ele>220</ele>
        <time>2020-09-17T12:43:28Z</time>
      </trkpt>
      <trkpt lat="49.18271" lon="2.01924">
        <ele>221</ele>
        <time>2020-09-17T12:43:36Z</time>
      </trkpt>
      <trkpt lat="49.18277" lon="2.01939">
        <ele>220</ele>
        <time>2020-09-17T12:43:43Z</time>
      </trkpt>
      <trkpt lat="49.18284" lon="2.0195">
        <ele>220</ele>
        <time>2020-09-17T12:43:49Z</time>
      </trkpt>
      <trkpt lat="49.18291" lon="2.01961">
        <ele>220</ele>
        <time>2020-09-17T12:43:56Z</time>
      </trkpt>
      <trkpt lat="49.18299" lon="2.01973">
        <ele>220</ele>
        <time>2020-09-17T12:44:04Z</time>
      </trkpt>
      <trkpt lat="49.18306" lon="2.01983">
        <ele>220</ele>
        <time>2020-09-17T12:44:10Z</time>
      </trkpt>
      <trkpt lat="49.18315" lon="2.01992">
        <ele>220</ele>
        <time>2020-09-17T12:44:17Z</time>
      </trkpt>
      <trkpt lat="49.18322" lon="2.02004">
        <ele>220</ele>
        <time>2020-09-17T12:44:23Z</time>
      </trkpt>
      <trkpt lat="49.18329" lon="2.02015">
        <ele>220</ele>
        <time>2020-09-17T12:44:30Z</time>
      </trkpt>
      <trkpt lat="49.18337" lon="2.02025">
        <ele>219</ele>
        <time>2020-09-17T12:44:38Z</time>
      </trkpt>
      <trkpt lat="49.18346" lon="2.02036">
        <ele>218</ele>
        <time>2020-09-17T12:44:47Z</time>
      </trkpt>
      <trkpt lat="49.18351" lon="2.02049">
        <ele>218</ele>
        <time>2020-09-17T12:44:56Z</time>
      </trkpt>
      <trkpt lat="49.1836" lon="2.0206">
        <ele>218</ele>
        <time>2020-09-17T12:45:05Z</time>
      </trkpt>
      <trkpt lat="49.18368" lon="2.02069">
        <ele>218</ele>
        <time>2020-09-17T12:45:13Z</time>
      </trkpt>
      <trkpt lat="49.18375" lon="2.02081">
        <ele>218</ele>
        <time>2020-09-17T12:45:19Z</time>
      </trkpt>
      <trkpt lat="49.18381" lon="2.02093">
        <ele>219</ele>
        <time>2020-09-17T12:45:26Z</time>
      </trkpt>
      <trkpt lat="49.18386" lon="2.02107">
        <ele>218</ele>
        <time>2020-09-17T12:45:33Z</time>
      </trkpt>
      <trkpt lat="49.18394" lon="2.02119">
        <ele>218</ele>
        <time>2020-09-17T12:45:39Z</time>
      </trkpt>
      <trkpt lat="49.184" lon="2.02131">
        <ele>218</ele>
        <time>2020-09-17T12:45:48Z</time>
      </trkpt>
      <trkpt lat="49.18407" lon="2.02143">
        <ele>218</ele>
        <time>2020-09-17T12:45:55Z</time>
      </trkpt>
      <trkpt lat="49.18415" lon="2.02152">
        <ele>218</ele>
        <time>2020-09-17T12:46:01Z</time>
      </trkpt>
      <trkpt lat="49.18426" lon="2.02158">
        <ele>217</ele>
        <time>2020-09-17T12:46:09Z</time>
      </trkpt>
      <trkpt lat="49.18436" lon="2.02164">
        <ele>217</ele>
        <time>2020-09-17T12:46:18Z</time>
      </trkpt>
      <trkpt lat="49.18447" lon="2.02167">
        <ele>217</ele>
        <time>2020-09-17T12:46:24Z</time>
      </trkpt>
      <trkpt lat="49.18458" lon="2.02169">
        <ele>217</ele>
        <time>2020-09-17T12:46:32Z</time>
      </trkpt>
      <trkpt lat="49.18467" lon="2.02173">
        <ele>217</ele>
        <time>2020-09-17T12:46:40Z</time>
      </trkpt>
      <trkpt lat="49.18477" lon="2.02174">
        <ele>217</ele>
        <time>2020-09-17T12:46:46Z</time>
      </trkpt>
      <trkpt lat="49.18487" lon="2.02179">
        <ele>217</ele>
        <time>2020-09-17T12:46:54Z</time>
      </trkpt>
      <trkpt lat="49.18497" lon="2.02181">
        <ele>217</ele>
        <time>2020-09-17T12:47:04Z</time>
      </trkpt>
      <trkpt lat="49.18506" lon="2.0218">
        <ele>216</ele>
        <time>2020-09-17T12:47:20Z</time>
      </trkpt>
      <trkpt lat="49.18516" lon="2.02181">
        <ele>216</ele>
        <time>2020-09-17T12:47:42Z</time>
      </trkpt>
      <trkpt lat="49.18527" lon="2.02184">
        <ele>216</ele>
        <time>2020-09-17T12:47:49Z</time>
      </trkpt>
      <trkpt lat="49.18536" lon="2.02189">
        <ele>216</ele>
        <time>2020-09-17T12:47:57Z</time>
      </trkpt>
      <trkpt lat="49.18546" lon="2.02194">
        <ele>216</ele>
        <time>2020-09-17T12:48:03Z</time>
      </trkpt>
      <trkpt lat="49.18554" lon="2.02201">
        <ele>216</ele>
        <time>2020-09-17T12:48:11Z</time>
      </trkpt>
      <trkpt lat="49.18563" lon="2.02207">
        <ele>216</ele>
        <time>2020-09-17T12:48:17Z</time>
      </trkpt>
      <trkpt lat="49.18574" lon="2.02209">
        <ele>216</ele>
        <time>2020-09-17T12:48:24Z</time>
      </trkpt>
      <trkpt lat="49.18583" lon="2.02212">
        <ele>216</ele>
        <time>2020-09-17T12:48:32Z</time>
      </trkpt>
      <trkpt lat="49.18593" lon="2.02212">
        <ele>215</ele>
        <time>2020-09-17T12:48:38Z</time>
      </trkpt>
      <trkpt lat="49.18603" lon="2.02215">
        <ele>215</ele>
        <time>2020-09-17T12:48:45Z</time>
      </trkpt>
      <trkpt lat="49.18613" lon="2.02217">
        <ele>215</ele>
        <time>2020-09-17T12:48:52Z</time>
      </trkpt>
      <trkpt lat="49.18623" lon="2.02221">
        <ele>215</ele>
        <time>2020-09-17T12:48:59Z</time>
      </trkpt>
      <trkpt lat="49.18633" lon="2.02226">
        <ele>215</ele>
        <time>2020-09-17T12:49:06Z</time>
      </trkpt>
      <trkpt lat="49.18644" lon="2.02227">
        <ele>215</ele>
        <time>2020-09-17T12:49:14Z</time>
      </trkpt>
      <trkpt lat="49.18653" lon="2.02228">
        <ele>215</ele>
        <time>2020-09-17T12:49:21Z</time>
      </trkpt>
      <trkpt lat="49.18663" lon="2.02227">
        <ele>215</ele>
        <time>2020-09-17T12:49:28Z</time>
      </trkpt>
      <trkpt lat="49.18674" lon="2.02227">
        <ele>214</ele>
        <time>2020-09-17T12:49:35Z</time>
      </trkpt>
      <trkpt lat="49.18684" lon="2.02228">
        <ele>214</ele>
        <time>2020-09-17T12:49:43Z</time>
      </trkpt>
      <trkpt lat="49.18696" lon="2.02231">
        <ele>214</ele>
        <time>2020-09-17T12:49:50Z</time>
      </trkpt>
      <trkpt lat="49.18706" lon="2.02234">
        <ele>214</ele>
        <time>2020-09-17T12:49:57Z</time>
      </trkpt>
      <trkpt lat="49.18716" lon="2.0224">
        <ele>214</ele>
        <time>2020-09-17T12:50:05Z</time>
      </trkpt>
      <trkpt lat="49.18727" lon="2.02243">
        <ele>214</ele>
        <time>2020-09-17T12:50:12Z</time>
      </trkpt>
      <trkpt lat="49.18735" lon="2.02249">
        <ele>215</ele>
        <time>2020-09-17T12:50:18Z</time>
      </trkpt>
      <trkpt lat="49.18746" lon="2.02252">
        <ele>216</ele>
        <time>2020-09-17T12:50:25Z</time>
      </trkpt>
      <trkpt lat="49.18756" lon="2.02254">
        <ele>216</ele>
        <time>2020-09-17T12:50:32Z</time>
      </trkpt>
      <trkpt lat="49.18766" lon="2.02251">
        <ele>216</ele>
        <time>2020-09-17T12:50:39Z</time>
      </trkpt>
      <trkpt lat="49.18776" lon="2.0225">
        <ele>214</ele>
        <time>2020-09-17T12:50:48Z</time>
      </trkpt>
      <trkpt lat="49.18787" lon="2.02244">
        <ele>213</ele>
        <time>2020-09-17T12:50:56Z</time>
      </trkpt>
      <trkpt lat="49.18796" lon="2.02239">
        <ele>213</ele>
        <time>2020-09-17T12:51:04Z</time>
      </trkpt>
      <trkpt lat="49.18806" lon="2.02236">
        <ele>213</ele>
        <time>2020-09-17T12:51:12Z</time>
      </trkpt>
      <trkpt lat="49.18816" lon="2.0223">
        <ele>213</ele>
        <time>2020-09-17T12:51:18Z</time>
      </trkpt>
      <trkpt lat="49.18825" lon="2.02225">
        <ele>213</ele>
        <time>2020-09-17T12:51:25Z</time>
      </trkpt>
      <trkpt lat="49.18834" lon="2.0222">
        <ele>214</ele>
        <time>2020-09-17T12:51:32Z</time>
      </trkpt>
      <trkpt lat="49.18843" lon="2.02212">
        <ele>213</ele>
        <time>2020-09-17T12:51:38Z</time>
      </trkpt>
      <trkpt lat="49.18853" lon="2.02202">
        <ele>213</ele>
        <time>2020-09-17T12:51:44Z</time>
      </trkpt>
      <trkpt lat="49.18863" lon="2.02195">
        <ele>213</ele>
        <time>2020-09-17T12:51:50Z</time>
      </trkpt>
      <trkpt lat="49.18872" lon="2.02187">
        <ele>213</ele>
        <time>2020-09-17T12:51:58Z</time>
      </trkpt>
      <trkpt lat="49.1888" lon="2.0218">
        <ele>214</ele>
        <time>2020-09-17T12:52:04Z</time>
      </trkpt>
      <trkpt lat="49.18891" lon="2.02174">
        <ele>214</ele>
        <time>2020-09-17T12:52:11Z</time>
      </trkpt>
      <trkpt lat="49.18901" lon="2.02167">
        <ele>214</ele>
        <time>2020-09-17T12:52:20Z</time>
      </trkpt>
      <trkpt lat="49.1891" lon="2.02158">
        <ele>213</ele>
        <time>2020-09-17T12:52:27Z</time>
      </trkpt>
      <trkpt lat="49.18917" lon="2.02148">
        <ele>214</ele>
        <time>2020-09-17T12:52:37Z</time>
      </trkpt>
      <trkpt lat="49.18927" lon="2.02142">
        <ele>214</ele>
        <time>2020-09-17T12:52:47Z</time>
      </trkpt>
      <trkpt lat="49.18936" lon="2.02135">
        <ele>214</ele>
        <time>2020-09-17T12:52:55Z</time>
      </trkpt>
      <trkpt lat="49.18945" lon="2.0213">
        <ele>214</ele>
        <time>2020-09-17T12:53:19Z</time>
      </trkpt>
      <trkpt lat="49.18951" lon="2.02117">
        <ele>214</ele>
        <time>2020-09-17T12:53:26Z</time>
      </trkpt>
      <trkpt lat="49.18959" lon="2.0211">
        <ele>214</ele>
        <time>2020-09-17T12:53:36Z</time>
      </trkpt>
      <trkpt lat="49.18968" lon="2.021">
        <ele>214</ele>
        <time>2020-09-17T12:53:43Z</time>
      </trkpt>
      <trkpt lat="49.18976" lon="2.02091">
        <ele>214</ele>
        <time>2020-09-17T12:53:49Z</time>
      </trkpt>
      <trkpt lat="49.18982" lon="2.02076">
        <ele>212</ele>
        <time>2020-09-17T12:53:57Z</time>
      </trkpt>
      <trkpt lat="49.18987" lon="2.02064">
        <ele>212</ele>
        <time>2020-09-17T12:54:03Z</time>
      </trkpt>
      <trkpt lat="49.18992" lon="2.02051">
        <ele>212</ele>
        <time>2020-09-17T12:54:10Z</time>
      </trkpt>
      <trkpt lat="49.18998" lon="2.02037">
        <ele>212</ele>
        <time>2020-09-17T12:54:16Z</time>
      </trkpt>
      <trkpt lat="49.19003" lon="2.02022">
        <ele>215</ele>
        <time>2020-09-17T12:54:23Z</time>
      </trkpt>
      <trkpt lat="49.19008" lon="2.02008">
        <ele>215</ele>
        <time>2020-09-17T12:54:30Z</time>
      </trkpt>
      <trkpt lat="49.19011" lon="2.01991">
        <ele>215</ele>
        <time>2020-09-17T12:54:39Z</time>
      </trkpt>
      <trkpt lat="49.19016" lon="2.01977">
        <ele>215</ele>
        <time>2020-09-17T12:54:47Z</time>
      </trkpt>
      <trkpt lat="49.19021" lon="2.01961">
        <ele>215</ele>
        <time>2020-09-17T12:54:55Z</time>
      </trkpt>
      <trkpt lat="49.19028" lon="2.01949">
        <ele>215</ele>
        <time>2020-09-17T12:55:04Z</time>
      </trkpt>
      <trkpt lat="49.19032" lon="2.01935">
        <ele>215</ele>
        <time>2020-09-17T12:55:11Z</time>
      </trkpt>
      <trkpt lat="49.19036" lon="2.01922">
        <ele>215</ele>
        <time>2020-09-17T12:55:17Z</time>
      </trkpt>
      <trkpt lat="49.19042" lon="2.01907">
        <ele>214</ele>
        <time>2020-09-17T12:55:24Z</time>
      </trkpt>
      <trkpt lat="49.19046" lon="2.01893">
        <ele>214</ele>
        <time>2020-09-17T12:55:31Z</time>
      </trkpt>
      <trkpt lat="49.19049" lon="2.01878">
        <ele>214</ele>
        <time>2020-09-17T12:55:39Z</time>
      </trkpt>
      <trkpt lat="49.19055" lon="2.01865">
        <ele>214</ele>
        <time>2020-09-17T12:55:46Z</time>
      </trkpt>
      <trkpt lat="49.19061" lon="2.01851">
        <ele>214</ele>
        <time>2020-09-17T12:55:54Z</time>
      </trkpt>
      <trkpt lat="49.19063" lon="2.01836">
        <ele>215</ele>
        <time>2020-09-17T12:56:00Z</time>
      </trkpt>
      <trkpt lat="49.19067" lon="2.01823">
        <ele>213</ele>
        <time>2020-09-17T12:56:07Z</time>
      </trkpt>
      <trkpt lat="49.19073" lon="2.01811">
        <ele>213</ele>
        <time>2020-09-17T12:56:13Z</time>
      </trkpt>
      <trkpt lat="49.19077" lon="2.01795">
        <ele>212</ele>
        <time>2020-09-17T12:56:21Z</time>
      </trkpt>
      <trkpt lat="49.19078" lon="2.01777">
        <ele>212</ele>
        <time>2020-09-17T12:56:28Z</time>
      </trkpt>
      <trkpt lat="49.19077" lon="2.01762">
        <ele>212</ele>
        <time>2020-09-17T12:56:37Z</time>
      </trkpt>
      <trkpt lat="49.19082" lon="2.01747">
        <ele>212</ele>
        <time>2020-09-17T12:56:43Z</time>
      </trkpt>
      <trkpt lat="49.19089" lon="2.01735">
        <ele>212</ele>
        <time>2020-09-17T12:56:48Z</time>
      </trkpt>
      <trkpt lat="49.19095" lon="2.01721">
        <ele>212</ele>
        <time>2020-09-17T12:56:55Z</time>
      </trkpt>
      <trkpt lat="49.191" lon="2.01707">
        <ele>212</ele>
        <time>2020-09-17T12:57:02Z</time>
      </trkpt>
      <trkpt lat="49.19104" lon="2.01689">
        <ele>212</ele>
        <time>2020-09-17T12:57:09Z</time>
      </trkpt>
      <trkpt lat="49.19105" lon="2.01674">
        <ele>211</ele>
        <time>2020-09-17T12:57:17Z</time>
      </trkpt>
      <trkpt lat="49.19108" lon="2.01658">
        <ele>211</ele>
        <time>2020-09-17T12:57:25Z</time>
      </trkpt>
      <trkpt lat="49.1911" lon="2.01643">
        <ele>211</ele>
        <time>2020-09-17T12:57:32Z</time>
      </trkpt>
      <trkpt lat="49.19112" lon="2.01628">
        <ele>211</ele>
        <time>2020-09-17T12:57:39Z</time>
      </trkpt>
      <trkpt lat="49.19114" lon="2.01611">
        <ele>210</ele>
        <time>2020-09-17T12:57:45Z</time>
      </trkpt>
      <trkpt lat="49.19117" lon="2.01596">
        <ele>210</ele>
        <time>2020-09-17T12:57:52Z</time>
      </trkpt>
      <trkpt lat="49.19119" lon="2.01581">
        <ele>210</ele>
        <time>2020-09-17T12:57:59Z</time>
      </trkpt>
      <trkpt lat="49.19119" lon="2.01565">
        <ele>210</ele>
        <time>2020-09-17T12:58:06Z</time>
      </trkpt>
      <trkpt lat="49.19117" lon="2.0155">
        <ele>210</ele>
        <time>2020-09-17T12:58:14Z</time>
      </trkpt>
      <trkpt lat="49.19116" lon="2.01535">
        <ele>210</ele>
        <time>2020-09-17T12:58:21Z</time>
      </trkpt>
      <trkpt lat="49.19118" lon="2.0152">
        <ele>210</ele>
        <time>2020-09-17T12:58:27Z</time>
      </trkpt>
      <trkpt lat="49.19119" lon="2.01503">
        <ele>210</ele>
        <time>2020-09-17T12:58:35Z</time>
      </trkpt>
      <trkpt lat="49.1912" lon="2.01486">
        <ele>210</ele>
        <time>2020-09-17T12:58:41Z</time>
      </trkpt>
      <trkpt lat="49.19123" lon="2.0147">
        <ele>210</ele>
        <time>2020-09-17T12:58:48Z</time>
      </trkpt>
      <trkpt lat="49.19126" lon="2.01455">
        <ele>210</ele>
        <time>2020-09-17T12:58:57Z</time>
      </trkpt>
      <trkpt lat="49.19127" lon="2.01441">
        <ele>210</ele>
        <time>2020-09-17T12:59:04Z</time>
      </trkpt>
      <trkpt lat="49.1913" lon="2.01427">
        <ele>210</ele>
        <time>2020-09-17T12:59:10Z</time>
      </trkpt>
      <trkpt lat="49.19132" lon="2.01411">
        <ele>210</ele>
        <time>2020-09-17T12:59:19Z</time>
      </trkpt>
      <trkpt lat="49.19137" lon="2.01396">
        <ele>210</ele>
        <time>2020-09-17T12:59:26Z</time>
      </trkpt>
      <trkpt lat="49.19141" lon="2.01383">
        <ele>210</ele>
        <time>2020-09-17T12:59:32Z</time>
      </trkpt>
      <trkpt lat="49.19146" lon="2.0137">
        <ele>210</ele>
        <time>2020-09-17T12:59:39Z</time>
      </trkpt>
      <trkpt lat="49.19147" lon="2.01353">
        <ele>210</ele>
        <time>2020-09-17T12:59:47Z</time>
      </trkpt>
      <trkpt lat="49.19151" lon="2.01339">
        <ele>210</ele>
        <time>2020-09-17T12:59:54Z</time>
      </trkpt>
      <trkpt lat="49.19153" lon="2.01324">
        <ele>211</ele>
        <time>2020-09-17T13:00:00Z</time>
      </trkpt>
      <trkpt lat="49.19157" lon="2.0131">
        <ele>211</ele>
        <time>2020-09-17T13:00:07Z</time>
      </trkpt>
      <trkpt lat="49.19162" lon="2.01295">
        <ele>211</ele>
        <time>2020-09-17T13:00:15Z</time>
      </trkpt>
      <trkpt lat="49.19167" lon="2.01281">
        <ele>212</ele>
        <time>2020-09-17T13:00:21Z</time>
      </trkpt>
      <trkpt lat="49.19168" lon="2.01266">
        <ele>212</ele>
        <time>2020-09-17T13:00:27Z</time>
      </trkpt>
      <trkpt lat="49.19172" lon="2.01253">
        <ele>213</ele>
        <time>2020-09-17T13:00:34Z</time>
      </trkpt>
      <trkpt lat="49.19176" lon="2.01239">
        <ele>213</ele>
        <time>2020-09-17T13:00:42Z</time>
      </trkpt>
      <trkpt lat="49.19182" lon="2.01224">
        <ele>213</ele>
        <time>2020-09-17T13:00:50Z</time>
      </trkpt>
      <trkpt lat="49.19188" lon="2.01213">
        <ele>213</ele>
        <time>2020-09-17T13:00:57Z</time>
      </trkpt>
      <trkpt lat="49.19195" lon="2.01199">
        <ele>213</ele>
        <time>2020-09-17T13:01:04Z</time>
      </trkpt>
      <trkpt lat="49.19197" lon="2.01185">
        <ele>213</ele>
        <time>2020-09-17T13:01:11Z</time>
      </trkpt>
      <trkpt lat="49.19203" lon="2.01171">
        <ele>213</ele>
        <time>2020-09-17T13:01:18Z</time>
      </trkpt>
      <trkpt lat="49.19209" lon="2.01158">
        <ele>212</ele>
        <time>2020-09-17T13:01:25Z</time>
      </trkpt>
      <trkpt lat="49.19216" lon="2.01147">
        <ele>212</ele>
        <time>2020-09-17T13:01:31Z</time>
      </trkpt>
      <trkpt lat="49.19222" lon="2.01134">
        <ele>211</ele>
        <time>2020-09-17T13:01:38Z</time>
      </trkpt>
      <trkpt lat="49.19228" lon="2.01123">
        <ele>211</ele>
        <time>2020-09-17T13:01:45Z</time>
      </trkpt>
      <trkpt lat="49.19235" lon="2.01111">
        <ele>211</ele>
        <time>2020-09-17T13:01:52Z</time>
      </trkpt>
      <trkpt lat="49.1924" lon="2.01097">
        <ele>211</ele>
        <time>2020-09-17T13:01:59Z</time>
      </trkpt>
      <trkpt lat="49.19246" lon="2.01086">
        <ele>210</ele>
        <time>2020-09-17T13:02:05Z</time>
      </trkpt>
      <trkpt lat="49.19253" lon="2.01074">
        <ele>210</ele>
        <time>2020-09-17T13:02:13Z</time>
      </trkpt>
      <trkpt lat="49.19259" lon="2.0106">
        <ele>210</ele>
        <time>2020-09-17T13:02:20Z</time>
      </trkpt>
      <trkpt lat="49.19265" lon="2.01048">
        <ele>210</ele>
        <time>2020-09-17T13:02:26Z</time>
      </trkpt>
      <trkpt lat="49.19271" lon="2.01037">
        <ele>209</ele>
        <time>2020-09-17T13:02:32Z</time>
      </trkpt>
      <trkpt lat="49.19278" lon="2.01025">
        <ele>209</ele>
        <time>2020-09-17T13:02:38Z</time>
      </trkpt>
      <trkpt lat="49.19284" lon="2.01014">
        <ele>209</ele>
        <time>2020-09-17T13:02:44Z</time>
      </trkpt>
      <trkpt lat="49.1929" lon="2.01003">
        <ele>209</ele>
        <time>2020-09-17T13:02:51Z</time>
      </trkpt>
      <trkpt lat="49.19296" lon="2.00988">
        <ele>207</ele>
        <time>2020-09-17T13:02:58Z</time>
      </trkpt>
      <trkpt lat="49.19298" lon="2.00974">
        <ele>207</ele>
        <time>2020-09-17T13:03:04Z</time>
      </trkpt>
      <trkpt lat="49.19303" lon="2.0096">
        <ele>207</ele>
        <time>2020-09-17T13:03:10Z</time>
      </trkpt>
      <trkpt lat="49.19309" lon="2.00947">
        <ele>207</ele>
        <time>2020-09-17T13:03:17Z</time>
      </trkpt>
      <trkpt lat="49.19317" lon="2.00936">
        <ele>207</ele>
        <time>2020-09-17T13:03:23Z</time>
      </trkpt>
      <trkpt lat="49.19325" lon="2.0093">
        <ele>207</ele>
        <time>2020-09-17T13:03:29Z</time>
      </trkpt>
      <trkpt lat="49.19335" lon="2.00922">
        <ele>209</ele>
        <time>2020-09-17T13:03:36Z</time>
      </trkpt>
      <trkpt lat="49.19342" lon="2.0091">
        <ele>207</ele>
        <time>2020-09-17T13:03:43Z</time>
      </trkpt>
      <trkpt lat="49.1935" lon="2.00899">
        <ele>207</ele>
        <time>2020-09-17T13:03:51Z</time>
      </trkpt>
      <trkpt lat="49.19357" lon="2.00886">
        <ele>206</ele>
        <time>2020-09-17T13:03:58Z</time>
      </trkpt>
      <trkpt lat="49.19363" lon="2.00875">
        <ele>206</ele>
        <time>2020-09-17T13:04:03Z</time>
      </trkpt>
      <trkpt lat="49.19367" lon="2.00863">
        <ele>205</ele>
        <time>2020-09-17T13:04:09Z</time>
      </trkpt>
      <trkpt lat="49.19372" lon="2.00851">
        <ele>205</ele>
        <time>2020-09-17T13:04:17Z</time>
      </trkpt>
      <trkpt lat="49.19379" lon="2.00838">
        <ele>205</ele>
        <time>2020-09-17T13:04:25Z</time>
      </trkpt>
      <trkpt lat="49.19382" lon="2.00823">
        <ele>201</ele>
        <time>2020-09-17T13:04:33Z</time>
      </trkpt>
      <trkpt lat="49.19385" lon="2.00808">
        <ele>201</ele>
        <time>2020-09-17T13:10:03Z</time>
      </trkpt>
      <trkpt lat="49.19389" lon="2.00793">
        <ele>201</ele>
        <time>2020-09-17T13:10:13Z</time>
      </trkpt>
      <trkpt lat="49.1939" lon="2.00778">
        <ele>200</ele>
        <time>2020-09-17T13:10:25Z</time>
      </trkpt>
      <trkpt lat="49.19391" lon="2.00764">
        <ele>200</ele>
        <time>2020-09-17T13:10:34Z</time>
      </trkpt>
      <trkpt lat="49.19396" lon="2.00751">
        <ele>201</ele>
        <time>2020-09-17T13:10:43Z</time>
      </trkpt>
      <trkpt lat="49.19403" lon="2.00738">
        <ele>199</ele>
        <time>2020-09-17T13:10:49Z</time>
      </trkpt>
      <trkpt lat="49.19407" lon="2.00725">
        <ele>198</ele>
        <time>2020-09-17T13:11:00Z</time>
      </trkpt>
      <trkpt lat="49.19412" lon="2.00709">
        <ele>198</ele>
        <time>2020-09-17T13:11:07Z</time>
      </trkpt>
      <trkpt lat="49.19416" lon="2.00695">
        <ele>198</ele>
        <time>2020-09-17T13:11:13Z</time>
      </trkpt>
      <trkpt lat="49.1942" lon="2.00682">
        <ele>200</ele>
        <time>2020-09-17T13:11:20Z</time>
      </trkpt>
      <trkpt lat="49.19422" lon="2.00665">
        <ele>200</ele>
        <time>2020-09-17T13:11:27Z</time>
      </trkpt>
      <trkpt lat="49.19422" lon="2.0065">
        <ele>201</ele>
        <time>2020-09-17T13:11:34Z</time>
      </trkpt>
      <trkpt lat="49.19422" lon="2.00635">
        <ele>201</ele>
        <time>2020-09-17T13:11:41Z</time>
      </trkpt>
      <trkpt lat="49.19414" lon="2.00626">
        <ele>197</ele>
        <time>2020-09-17T13:11:50Z</time>
      </trkpt>
      <trkpt lat="49.19407" lon="2.00617">
        <ele>197</ele>
        <time>2020-09-17T13:11:59Z</time>
      </trkpt>
      <trkpt lat="49.194" lon="2.00606">
        <ele>197</ele>
        <time>2020-09-17T13:12:06Z</time>
      </trkpt>
      <trkpt lat="49.19395" lon="2.00591">
        <ele>197</ele>
        <time>2020-09-17T13:12:13Z</time>
      </trkpt>
      <trkpt lat="49.19386" lon="2.00575">
        <ele>198</ele>
        <time>2020-09-17T13:12:31Z</time>
      </trkpt>
      <trkpt lat="49.1938" lon="2.00562">
        <ele>197</ele>
        <time>2020-09-17T13:12:44Z</time>
      </trkpt>
      <trkpt lat="49.19374" lon="2.00549">
        <ele>197</ele>
        <time>2020-09-17T13:12:52Z</time>
      </trkpt>
      <trkpt lat="49.19369" lon="2.00536">
        <ele>197</ele>
        <time>2020-09-17T13:12:59Z</time>
      </trkpt>
      <trkpt lat="49.19363" lon="2.00522">
        <ele>196</ele>
        <time>2020-09-17T13:13:07Z</time>
      </trkpt>
      <trkpt lat="49.19358" lon="2.00509">
        <ele>196</ele>
        <time>2020-09-17T13:13:14Z</time>
      </trkpt>
      <trkpt lat="49.19353" lon="2.00494">
        <ele>196</ele>
        <time>2020-09-17T13:13:22Z</time>
      </trkpt>
      <trkpt lat="49.19348" lon="2.00479">
        <ele>197</ele>
        <time>2020-09-17T13:13:30Z</time>
      </trkpt>
      <trkpt lat="49.19344" lon="2.00465">
        <ele>197</ele>
        <time>2020-09-17T13:13:37Z</time>
      </trkpt>
      <trkpt lat="49.19338" lon="2.00453">
        <ele>198</ele>
        <time>2020-09-17T13:13:45Z</time>
      </trkpt>
      <trkpt lat="49.19332" lon="2.00443">
        <ele>192</ele>
        <time>2020-09-17T13:13:53Z</time>
      </trkpt>
      <trkpt lat="49.19323" lon="2.00435">
        <ele>192</ele>
        <time>2020-09-17T13:14:01Z</time>
      </trkpt>
      <trkpt lat="49.19314" lon="2.00429">
        <ele>192</ele>
        <time>2020-09-17T13:14:07Z</time>
      </trkpt>
      <trkpt lat="49.19304" lon="2.00423">
        <ele>191</ele>
        <time>2020-09-17T13:14:15Z</time>
      </trkpt>
      <trkpt lat="49.19295" lon="2.00416">
        <ele>191</ele>
        <time>2020-09-17T13:14:23Z</time>
      </trkpt>
      <trkpt lat="49.19286" lon="2.0041">
        <ele>191</ele>
        <time>2020-09-17T13:14:31Z</time>
      </trkpt>
      <trkpt lat="49.19278" lon="2.00402">
        <ele>190</ele>
        <time>2020-09-17T13:14:39Z</time>
      </trkpt>
      <trkpt lat="49.1927" lon="2.00391">
        <ele>190</ele>
        <time>2020-09-17T13:14:47Z</time>
      </trkpt>
      <trkpt lat="49.19263" lon="2.00377">
        <ele>189</ele>
        <time>2020-09-17T13:14:55Z</time>
      </trkpt>
      <trkpt lat="49.19256" lon="2.00363">
        <ele>189</ele>
        <time>2020-09-17T13:15:03Z</time>
      </trkpt>
      <trkpt lat="49.1925" lon="2.00352">
        <ele>188</ele>
        <time>2020-09-17T13:15:11Z</time>
      </trkpt>
      <trkpt lat="49.19245" lon="2.00339">
        <ele>185</ele>
        <time>2020-09-17T13:15:19Z</time>
      </trkpt>
      <trkpt lat="49.1924" lon="2.00326">
        <ele>185</ele>
        <time>2020-09-17T13:15:27Z</time>
      </trkpt>
      <trkpt lat="49.19235" lon="2.00311">
        <ele>185</ele>
        <time>2020-09-17T13:15:35Z</time>
      </trkpt>
      <trkpt lat="49.19229" lon="2.00298">
        <ele>185</ele>
        <time>2020-09-17T13:15:42Z</time>
      </trkpt>
      <trkpt lat="49.19222" lon="2.00287">
        <ele>185</ele>
        <time>2020-09-17T13:15:49Z</time>
      </trkpt>
      <trkpt lat="49.19214" lon="2.00276">
        <ele>185</ele>
        <time>2020-09-17T13:15:56Z</time>
      </trkpt>
      <trkpt lat="49.19207" lon="2.00268">
        <ele>184</ele>
        <time>2020-09-17T13:16:05Z</time>
      </trkpt>
      <trkpt lat="49.19198" lon="2.00259">
        <ele>184</ele>
        <time>2020-09-17T13:16:12Z</time>
      </trkpt>
      <trkpt lat="49.1919" lon="2.0025">
        <ele>184</ele>
        <time>2020-09-17T13:16:18Z</time>
      </trkpt>
      <trkpt lat="49.19182" lon="2.00241">
        <ele>184</ele>
        <time>2020-09-17T13:16:25Z</time>
      </trkpt>
      <trkpt lat="49.19172" lon="2.00231">
        <ele>184</ele>
        <time>2020-09-17T13:16:33Z</time>
      </trkpt>
      <trkpt lat="49.19163" lon="2.00223">
        <ele>181</ele>
        <time>2020-09-17T13:16:40Z</time>
      </trkpt>
      <trkpt lat="49.19154" lon="2.00217">
        <ele>181</ele>
        <time>2020-09-17T13:16:46Z</time>
      </trkpt>
      <trkpt lat="49.19145" lon="2.00211">
        <ele>181</ele>
        <time>2020-09-17T13:16:52Z</time>
      </trkpt>
      <trkpt lat="49.19136" lon="2.00205">
        <ele>180</ele>
        <time>2020-09-17T13:16:59Z</time>
      </trkpt>
      <trkpt lat="49.19126" lon="2.00197">
        <ele>180</ele>
        <time>2020-09-17T13:17:07Z</time>
      </trkpt>
      <trkpt lat="49.19116" lon="2.00194">
        <ele>180</ele>
        <time>2020-09-17T13:17:15Z</time>
      </trkpt>
      <trkpt lat="49.19106" lon="2.00192">
        <ele>180</ele>
        <time>2020-09-17T13:17:25Z</time>
      </trkpt>
      <trkpt lat="49.19096" lon="2.0019">
        <ele>179</ele>
        <time>2020-09-17T13:17:33Z</time>
      </trkpt>
      <trkpt lat="49.19085" lon="2.00188">
        <ele>179</ele>
        <time>2020-09-17T13:17:42Z</time>
      </trkpt>
      <trkpt lat="49.19074" lon="2.00187">
        <ele>177</ele>
        <time>2020-09-17T13:17:50Z</time>
      </trkpt>
      <trkpt lat="49.19065" lon="2.00182">
        <ele>177</ele>
        <time>2020-09-17T13:17:57Z</time>
      </trkpt>
      <trkpt lat="49.19055" lon="2.00176">
        <ele>176</ele>
        <time>2020-09-17T13:18:06Z</time>
      </trkpt>
      <trkpt lat="49.19046" lon="2.00168">
        <ele>176</ele>
        <time>2020-09-17T13:18:14Z</time>
      </trkpt>
      <trkpt lat="49.19037" lon="2.00157">
        <ele>173</ele>
        <time>2020-09-17T13:18:23Z</time>
      </trkpt>
      <trkpt lat="49.1903" lon="2.00144">
        <ele>172</ele>
        <time>2020-09-17T13:18:30Z</time>
      </trkpt>
      <trkpt lat="49.19025" lon="2.00131">
        <ele>172</ele>
        <time>2020-09-17T13:18:36Z</time>
      </trkpt>
      <trkpt lat="49.1902" lon="2.00119">
        <ele>171</ele>
        <time>2020-09-17T13:18:42Z</time>
      </trkpt>
      <trkpt lat="49.19013" lon="2.00108">
        <ele>170</ele>
        <time>2020-09-17T13:18:48Z</time>
      </trkpt>
      <trkpt lat="49.19005" lon="2.001">
        <ele>169</ele>
        <time>2020-09-17T13:18:54Z</time>
      </trkpt>
      <trkpt lat="49.18996" lon="2.00094">
        <ele>165</ele>
        <time>2020-09-17T13:19:00Z</time>
      </trkpt>
      <trkpt lat="49.18987" lon="2.00089">
        <ele>165</ele>
        <time>2020-09-17T13:19:07Z</time>
      </trkpt>
      <trkpt lat="49.18977" lon="2.00085">
        <ele>164</ele>
        <time>2020-09-17T13:19:13Z</time>
      </trkpt>
      <trkpt lat="49.18968" lon="2.00081">
        <ele>161</ele>
        <time>2020-09-17T13:19:19Z</time>
      </trkpt>
      <trkpt lat="49.18958" lon="2.00078">
        <ele>160</ele>
        <time>2020-09-17T13:19:27Z</time>
      </trkpt>
      <trkpt lat="49.18948" lon="2.00077">
        <ele>159</ele>
        <time>2020-09-17T13:19:35Z</time>
      </trkpt>
      <trkpt lat="49.18937" lon="2.00075">
        <ele>158</ele>
        <time>2020-09-17T13:19:43Z</time>
      </trkpt>
      <trkpt lat="49.18926" lon="2.0007">
        <ele>157</ele>
        <time>2020-09-17T13:19:51Z</time>
      </trkpt>
      <trkpt lat="49.18915" lon="2.00066">
        <ele>152</ele>
        <time>2020-09-17T13:19:59Z</time>
      </trkpt>
      <trkpt lat="49.18904" lon="2.00063">
        <ele>152</ele>
        <time>2020-09-17T13:20:07Z</time>
      </trkpt>
      <trkpt lat="49.18893" lon="2.00062">
        <ele>151</ele>
        <time>2020-09-17T13:20:14Z</time>
      </trkpt>
      <trkpt lat="49.18883" lon="2.00062">
        <ele>150</ele>
        <time>2020-09-17T13:20:20Z</time>
      </trkpt>
      <trkpt lat="49.18872" lon="2.00063">
        <ele>149</ele>
        <time>2020-09-17T13:20:28Z</time>
      </trkpt>
      <trkpt lat="49.18861" lon="2.00063">
        <ele>149</ele>
        <time>2020-09-17T13:20:36Z</time>
      </trkpt>
      <trkpt lat="49.1885" lon="2.00063">
        <ele>148</ele>
        <time>2020-09-17T13:20:42Z</time>
      </trkpt>
      <trkpt lat="49.18839" lon="2.00062">
        <ele>147</ele>
        <time>2020-09-17T13:20:48Z</time>
      </trkpt>
      <trkpt lat="49.18828" lon="2.00059">
        <ele>143</ele>
        <time>2020-09-17T13:20:54Z</time>
      </trkpt>
      <trkpt lat="49.18823" lon="2.00045">
        <ele>143</ele>
        <time>2020-09-17T13:21:51Z</time>
      </trkpt>
      <trkpt lat="49.18824" lon="2.00029">
        <ele>143</ele>
        <time>2020-09-17T13:21:59Z</time>
      </trkpt>
      <trkpt lat="49.18824" lon="2.00012">
        <ele>143</ele>
        <time>2020-09-17T13:22:07Z</time>
      </trkpt>
      <trkpt lat="49.18823" lon="1.99996">
        <ele>143</ele>
        <time>2020-09-17T13:22:14Z</time>
      </trkpt>
      <trkpt lat="49.1882" lon="1.99981">
        <ele>143</ele>
        <time>2020-09-17T13:22:21Z</time>
      </trkpt>
      <trkpt lat="49.18819" lon="1.99965">
        <ele>143</ele>
        <time>2020-09-17T13:22:29Z</time>
      </trkpt>
      <trkpt lat="49.18816" lon="1.99949">
        <ele>143</ele>
        <time>2020-09-17T13:22:36Z</time>
      </trkpt>
      <trkpt lat="49.18814" lon="1.99934">
        <ele>143</ele>
        <time>2020-09-17T13:22:43Z</time>
      </trkpt>
      <trkpt lat="49.18811" lon="1.99919">
        <ele>143</ele>
        <time>2020-09-17T13:22:51Z</time>
      </trkpt>
      <trkpt lat="49.18807" lon="1.99905">
        <ele>144</ele>
        <time>2020-09-17T13:23:01Z</time>
      </trkpt>
      <trkpt lat="49.18801" lon="1.99892">
        <ele>143</ele>
        <time>2020-09-17T13:23:11Z</time>
      </trkpt>
      <trkpt lat="49.18796" lon="1.99879">
        <ele>143</ele>
        <time>2020-09-17T13:23:19Z</time>
      </trkpt>
      <trkpt lat="49.18792" lon="1.99866">
        <ele>143</ele>
        <time>2020-09-17T13:23:25Z</time>
      </trkpt>
      <trkpt lat="49.18789" lon="1.99851">
        <ele>143</ele>
        <time>2020-09-17T13:23:32Z</time>
      </trkpt>
      <trkpt lat="49.18784" lon="1.99837">
        <ele>142</ele>
        <time>2020-09-17T13:23:43Z</time>
      </trkpt>
      <trkpt lat="49.18781" lon="1.99822">
        <ele>141</ele>
        <time>2020-09-17T13:23:49Z</time>
      </trkpt>
      <trkpt lat="49.18777" lon="1.99807">
        <ele>141</ele>
        <time>2020-09-17T13:23:54Z</time>
      </trkpt>
      <trkpt lat="49.18775" lon="1.99793">
        <ele>141</ele>
        <time>2020-09-17T13:24:00Z</time>
      </trkpt>
      <trkpt lat="49.18775" lon="1.99775">
        <ele>140</ele>
        <time>2020-09-17T13:24:06Z</time>
      </trkpt>
      <trkpt lat="49.18774" lon="1.99759">
        <ele>140</ele>
        <time>2020-09-17T13:24:13Z</time>
      </trkpt>
      <trkpt lat="49.18777" lon="1.99746">
        <ele>139</ele>
        <time>2020-09-17T13:24:19Z</time>
      </trkpt>
      <trkpt lat="49.18782" lon="1.99731">
        <ele>139</ele>
        <time>2020-09-17T13:24:27Z</time>
      </trkpt>
      <trkpt lat="49.18769" lon="1.9973">
        <ele>138</ele>
        <time>2020-09-17T13:24:45Z</time>
      </trkpt>
      <trkpt lat="49.18758" lon="1.99728">
        <ele>138</ele>
        <time>2020-09-17T13:24:53Z</time>
      </trkpt>
      <trkpt lat="49.18748" lon="1.99727">
        <ele>136</ele>
        <time>2020-09-17T13:25:00Z</time>
      </trkpt>
      <trkpt lat="49.18737" lon="1.99726">
        <ele>136</ele>
        <time>2020-09-17T13:25:07Z</time>
      </trkpt>
      <trkpt lat="49.18727" lon="1.99729">
        <ele>136</ele>
        <time>2020-09-17T13:25:15Z</time>
      </trkpt>
      <trkpt lat="49.18717" lon="1.99735">
        <ele>137</ele>
        <time>2020-09-17T13:25:24Z</time>
      </trkpt>
      <trkpt lat="49.18708" lon="1.99742">
        <ele>137</ele>
        <time>2020-09-17T13:25:32Z</time>
      </trkpt>
      <trkpt lat="49.18698" lon="1.99748">
        <ele>137</ele>
        <time>2020-09-17T13:25:40Z</time>
      </trkpt>
      <trkpt lat="49.18688" lon="1.99748">
        <ele>138</ele>
        <time>2020-09-17T13:25:47Z</time>
      </trkpt>
      <trkpt lat="49.18691" lon="1.99733">
        <ele>137</ele>
        <time>2020-09-17T13:25:59Z</time>
      </trkpt>
      <trkpt lat="49.18695" lon="1.99719">
        <ele>137</ele>
        <time>2020-09-17T13:26:08Z</time>
      </trkpt>
      <trkpt lat="49.187" lon="1.99706">
        <ele>137</ele>
        <time>2020-09-17T13:26:17Z</time>
      </trkpt>
      <trkpt lat="49.18702" lon="1.9969">
        <ele>136</ele>
        <time>2020-09-17T13:26:25Z</time>
      </trkpt>
      <trkpt lat="49.18703" lon="1.99675">
        <ele>136</ele>
        <time>2020-09-17T13:26:32Z</time>
      </trkpt>
      <trkpt lat="49.18704" lon="1.99659">
        <ele>135</ele>
        <time>2020-09-17T13:26:39Z</time>
      </trkpt>
      <trkpt lat="49.18706" lon="1.99644">
        <ele>134</ele>
        <time>2020-09-17T13:26:46Z</time>
      </trkpt>
      <trkpt lat="49.18712" lon="1.9963">
        <ele>134</ele>
        <time>2020-09-17T13:26:55Z</time>
      </trkpt>
      <trkpt lat="49.18706" lon="1.99618">
        <ele>134</ele>
        <time>2020-09-17T13:27:03Z</time>
      </trkpt>
      <trkpt lat="49.18695" lon="1.99616">
        <ele>134</ele>
        <time>2020-09-17T13:27:09Z</time>
      </trkpt>
      <trkpt lat="49.18683" lon="1.99612">
        <ele>133</ele>
        <time>2020-09-17T13:27:15Z</time>
      </trkpt>
      <trkpt lat="49.18672" lon="1.99608">
        <ele>133</ele>
        <time>2020-09-17T13:27:22Z</time>
      </trkpt>
      <trkpt lat="49.18663" lon="1.99603">
        <ele>133</ele>
        <time>2020-09-17T13:27:30Z</time>
      </trkpt>
      <trkpt lat="49.18653" lon="1.99599">
        <ele>133</ele>
        <time>2020-09-17T13:27:37Z</time>
      </trkpt>
      <trkpt lat="49.18642" lon="1.99595">
        <ele>134</ele>
        <time>2020-09-17T13:27:45Z</time>
      </trkpt>
      <trkpt lat="49.18633" lon="1.99587">
        <ele>134</ele>
        <time>2020-09-17T13:27:53Z</time>
      </trkpt>
      <trkpt lat="49.18625" lon="1.99581">
        <ele>131</ele>
        <time>2020-09-17T13:28:00Z</time>
      </trkpt>
      <trkpt lat="49.18615" lon="1.99575">
        <ele>131</ele>
        <time>2020-09-17T13:28:07Z</time>
      </trkpt>
      <trkpt lat="49.18604" lon="1.99573">
        <ele>131</ele>
        <time>2020-09-17T13:28:15Z</time>
      </trkpt>
      <trkpt lat="49.18595" lon="1.99572">
        <ele>132</ele>
        <time>2020-09-17T13:28:21Z</time>
      </trkpt>
      <trkpt lat="49.18582" lon="1.99571">
        <ele>131</ele>
        <time>2020-09-17T13:28:28Z</time>
      </trkpt>
      <trkpt lat="49.18571" lon="1.99573">
        <ele>130</ele>
        <time>2020-09-17T13:28:36Z</time>
      </trkpt>
      <trkpt lat="49.1856" lon="1.9957">
        <ele>129</ele>
        <time>2020-09-17T13:28:43Z</time>
      </trkpt>
      <trkpt lat="49.18549" lon="1.99567">
        <ele>128</ele>
        <time>2020-09-17T13:28:51Z</time>
      </trkpt>
      <trkpt lat="49.18539" lon="1.99564">
        <ele>127</ele>
        <time>2020-09-17T13:28:59Z</time>
      </trkpt>
      <trkpt lat="49.18529" lon="1.99565">
        <ele>127</ele>
        <time>2020-09-17T13:29:06Z</time>
      </trkpt>
      <trkpt lat="49.18518" lon="1.99567">
        <ele>127</ele>
        <time>2020-09-17T13:29:12Z</time>
      </trkpt>
      <trkpt lat="49.18508" lon="1.99566">
        <ele>126</ele>
        <time>2020-09-17T13:29:18Z</time>
      </trkpt>
      <trkpt lat="49.18497" lon="1.99564">
        <ele>124</ele>
        <time>2020-09-17T13:29:24Z</time>
      </trkpt>
      <trkpt lat="49.18487" lon="1.99563">
        <ele>124</ele>
        <time>2020-09-17T13:29:31Z</time>
      </trkpt>
      <trkpt lat="49.18475" lon="1.99564">
        <ele>123</ele>
        <time>2020-09-17T13:29:40Z</time>
      </trkpt>
      <trkpt lat="49.18465" lon="1.99563">
        <ele>123</ele>
        <time>2020-09-17T13:29:47Z</time>
      </trkpt>
      <trkpt lat="49.18455" lon="1.99566">
        <ele>123</ele>
        <time>2020-09-17T13:29:55Z</time>
      </trkpt>
      <trkpt lat="49.18445" lon="1.99565">
        <ele>123</ele>
        <time>2020-09-17T13:30:02Z</time>
      </trkpt>
      <trkpt lat="49.18434" lon="1.99568">
        <ele>123</ele>
        <time>2020-09-17T13:30:09Z</time>
      </trkpt>
      <trkpt lat="49.18422" lon="1.99568">
        <ele>123</ele>
        <time>2020-09-17T13:30:18Z</time>
      </trkpt>
      <trkpt lat="49.18412" lon="1.99563">
        <ele>122</ele>
        <time>2020-09-17T13:30:24Z</time>
      </trkpt>
      <trkpt lat="49.18402" lon="1.99561">
        <ele>122</ele>
        <time>2020-09-17T13:30:30Z</time>
      </trkpt>
      <trkpt lat="49.18392" lon="1.99557">
        <ele>122</ele>
        <time>2020-09-17T13:30:37Z</time>
      </trkpt>
      <trkpt lat="49.18383" lon="1.99553">
        <ele>122</ele>
        <time>2020-09-17T13:30:44Z</time>
      </trkpt>
      <trkpt lat="49.18374" lon="1.99546">
        <ele>122</ele>
        <time>2020-09-17T13:30:50Z</time>
      </trkpt>
      <trkpt lat="49.18367" lon="1.99534">
        <ele>121</ele>
        <time>2020-09-17T13:30:58Z</time>
      </trkpt>
      <trkpt lat="49.1836" lon="1.99523">
        <ele>121</ele>
        <time>2020-09-17T13:31:05Z</time>
      </trkpt>
      <trkpt lat="49.1835" lon="1.99515">
        <ele>121</ele>
        <time>2020-09-17T13:31:12Z</time>
      </trkpt>
      <trkpt lat="49.18349" lon="1.99499">
        <ele>120</ele>
        <time>2020-09-17T13:31:21Z</time>
      </trkpt>
      <trkpt lat="49.18349" lon="1.99483">
        <ele>120</ele>
        <time>2020-09-17T13:31:27Z</time>
      </trkpt>
      <trkpt lat="49.18349" lon="1.99468">
        <ele>120</ele>
        <time>2020-09-17T13:31:33Z</time>
      </trkpt>
      <trkpt lat="49.18349" lon="1.99452">
        <ele>120</ele>
        <time>2020-09-17T13:31:40Z</time>
      </trkpt>
      <trkpt lat="49.1835" lon="1.99436">
        <ele>120</ele>
        <time>2020-09-17T13:31:47Z</time>
      </trkpt>
      <trkpt lat="49.18349" lon="1.9942">
        <ele>120</ele>
        <time>2020-09-17T13:31:54Z</time>
      </trkpt>
      <trkpt lat="49.18349" lon="1.99405">
        <ele>119</ele>
        <time>2020-09-17T13:32:01Z</time>
      </trkpt>
      <trkpt lat="49.18347" lon="1.99391">
        <ele>119</ele>
        <time>2020-09-17T13:32:09Z</time>
      </trkpt>
      <trkpt lat="49.18337" lon="1.99399">
        <ele>119</ele>
        <time>2020-09-17T13:34:10Z</time>
      </trkpt>
      <trkpt lat="49.18329" lon="1.99408">
        <ele>120</ele>
        <time>2020-09-17T13:34:20Z</time>
      </trkpt>
      <trkpt lat="49.18321" lon="1.99418">
        <ele>121</ele>
        <time>2020-09-17T13:34:29Z</time>
      </trkpt>
      <trkpt lat="49.18312" lon="1.99428">
        <ele>121</ele>
        <time>2020-09-17T13:34:37Z</time>
      </trkpt>
      <trkpt lat="49.18303" lon="1.99437">
        <ele>122</ele>
        <time>2020-09-17T13:34:45Z</time>
      </trkpt>
      <trkpt lat="49.18295" lon="1.99447">
        <ele>122</ele>
        <time>2020-09-17T13:34:53Z</time>
      </trkpt>
      <trkpt lat="49.18287" lon="1.99458">
        <ele>122</ele>
        <time>2020-09-17T13:35:02Z</time>
      </trkpt>
      <trkpt lat="49.18278" lon="1.99466">
        <ele>123</ele>
        <time>2020-09-17T13:35:08Z</time>
      </trkpt>
      <trkpt lat="49.1827" lon="1.99473">
        <ele>123</ele>
        <time>2020-09-17T13:35:15Z</time>
      </trkpt>
      <trkpt lat="49.18262" lon="1.99481">
        <ele>123</ele>
        <time>2020-09-17T13:35:23Z</time>
      </trkpt>
      <trkpt lat="49.18253" lon="1.99489">
        <ele>123</ele>
        <time>2020-09-17T13:35:29Z</time>
      </trkpt>
      <trkpt lat="49.18244" lon="1.99499">
        <ele>125</ele>
        <time>2020-09-17T13:35:37Z</time>
      </trkpt>
      <trkpt lat="49.18237" lon="1.99509">
        <ele>125</ele>
        <time>2020-09-17T13:35:45Z</time>
      </trkpt>
      <trkpt lat="49.18229" lon="1.99519">
        <ele>126</ele>
        <time>2020-09-17T13:35:54Z</time>
      </trkpt>
      <trkpt lat="49.18221" lon="1.9953">
        <ele>126</ele>
        <time>2020-09-17T13:36:02Z</time>
      </trkpt>
      <trkpt lat="49.18214" lon="1.99539">
        <ele>127</ele>
        <time>2020-09-17T13:36:08Z</time>
      </trkpt>
      <trkpt lat="49.18205" lon="1.99546">
        <ele>127</ele>
        <time>2020-09-17T13:36:14Z</time>
      </trkpt>
      <trkpt lat="49.18196" lon="1.99556">
        <ele>127</ele>
        <time>2020-09-17T13:36:22Z</time>
      </trkpt>
      <trkpt lat="49.18187" lon="1.99566">
        <ele>128</ele>
        <time>2020-09-17T13:36:30Z</time>
      </trkpt>
      <trkpt lat="49.18178" lon="1.99574">
        <ele>129</ele>
        <time>2020-09-17T13:36:36Z</time>
      </trkpt>
      <trkpt lat="49.1817" lon="1.99583">
        <ele>130</ele>
        <time>2020-09-17T13:36:45Z</time>
      </trkpt>
      <trkpt lat="49.1816" lon="1.9959">
        <ele>131</ele>
        <time>2020-09-17T13:36:53Z</time>
      </trkpt>
      <trkpt lat="49.18152" lon="1.99595">
        <ele>132</ele>
        <time>2020-09-17T13:37:26Z</time>
      </trkpt>
      <trkpt lat="49.18144" lon="1.99606">
        <ele>132</ele>
        <time>2020-09-17T13:37:35Z</time>
      </trkpt>
      <trkpt lat="49.18134" lon="1.99613">
        <ele>133</ele>
        <time>2020-09-17T13:37:43Z</time>
      </trkpt>
      <trkpt lat="49.18126" lon="1.99622">
        <ele>133</ele>
        <time>2020-09-17T13:37:51Z</time>
      </trkpt>
      <trkpt lat="49.18117" lon="1.99629">
        <ele>134</ele>
        <time>2020-09-17T13:37:59Z</time>
      </trkpt>
      <trkpt lat="49.18107" lon="1.99635">
        <ele>134</ele>
        <time>2020-09-17T13:38:07Z</time>
      </trkpt>
      <trkpt lat="49.18099" lon="1.99643">
        <ele>134</ele>
        <time>2020-09-17T13:38:15Z</time>
      </trkpt>
      <trkpt lat="49.18091" lon="1.99653">
        <ele>135</ele>
        <time>2020-09-17T13:38:23Z</time>
      </trkpt>
      <trkpt lat="49.18082" lon="1.99662">
        <ele>136</ele>
        <time>2020-09-17T13:38:31Z</time>
      </trkpt>
      <trkpt lat="49.18073" lon="1.9967">
        <ele>137</ele>
        <time>2020-09-17T13:38:39Z</time>
      </trkpt>
      <trkpt lat="49.18065" lon="1.99678">
        <ele>137</ele>
        <time>2020-09-17T13:38:47Z</time>
      </trkpt>
      <trkpt lat="49.18055" lon="1.99682">
        <ele>137</ele>
        <time>2020-09-17T13:38:54Z</time>
      </trkpt>
      <trkpt lat="49.18046" lon="1.99689">
        <ele>137</ele>
        <time>2020-09-17T13:39:02Z</time>
      </trkpt>
      <trkpt lat="49.18037" lon="1.99697">
        <ele>138</ele>
        <time>2020-09-17T13:39:10Z</time>
      </trkpt>
      <trkpt lat="49.18028" lon="1.99705">
        <ele>138</ele>
        <time>2020-09-17T13:39:18Z</time>
      </trkpt>
      <trkpt lat="49.18021" lon="1.99715">
        <ele>138</ele>
        <time>2020-09-17T13:39:26Z</time>
      </trkpt>
      <trkpt lat="49.18014" lon="1.99726">
        <ele>138</ele>
        <time>2020-09-17T13:39:33Z</time>
      </trkpt>
      <trkpt lat="49.18006" lon="1.99735">
        <ele>139</ele>
        <time>2020-09-17T13:39:40Z</time>
      </trkpt>
      <trkpt lat="49.17997" lon="1.99746">
        <ele>140</ele>
        <time>2020-09-17T13:39:48Z</time>
      </trkpt>
      <trkpt lat="49.17988" lon="1.99756">
        <ele>142</ele>
        <time>2020-09-17T13:39:56Z</time>
      </trkpt>
      <trkpt lat="49.17981" lon="1.99768">
        <ele>143</ele>
        <time>2020-09-17T13:40:04Z</time>
      </trkpt>
      <trkpt lat="49.17975" lon="1.99781">
        <ele>143</ele>
        <time>2020-09-17T13:40:14Z</time>
      </trkpt>
      <trkpt lat="49.17968" lon="1.99794">
        <ele>144</ele>
        <time>2020-09-17T13:40:24Z</time>
      </trkpt>
      <trkpt lat="49.17962" lon="1.99804">
        <ele>144</ele>
        <time>2020-09-17T13:40:30Z</time>
      </trkpt>
      <trkpt lat="49.17954" lon="1.99813">
        <ele>145</ele>
        <time>2020-09-17T13:40:38Z</time>
      </trkpt>
      <trkpt lat="49.17947" lon="1.99825">
        <ele>146</ele>
        <time>2020-09-17T13:40:47Z</time>
      </trkpt>
      <trkpt lat="49.17939" lon="1.99833">
        <ele>150</ele>
        <time>2020-09-17T13:40:54Z</time>
      </trkpt>
      <trkpt lat="49.1793" lon="1.99842">
        <ele>150</ele>
        <time>2020-09-17T13:41:03Z</time>
      </trkpt>
      <trkpt lat="49.17922" lon="1.99852">
        <ele>150</ele>
        <time>2020-09-17T13:41:10Z</time>
      </trkpt>
      <trkpt lat="49.17913" lon="1.99862">
        <ele>158</ele>
        <time>2020-09-17T13:41:18Z</time>
      </trkpt>
      <trkpt lat="49.17905" lon="1.99872">
        <ele>158</ele>
        <time>2020-09-17T13:41:28Z</time>
      </trkpt>
      <trkpt lat="49.17896" lon="1.99878">
        <ele>159</ele>
        <time>2020-09-17T13:41:36Z</time>
      </trkpt>
      <trkpt lat="49.17888" lon="1.99886">
        <ele>160</ele>
        <time>2020-09-17T13:41:44Z</time>
      </trkpt>
      <trkpt lat="49.1788" lon="1.99895">
        <ele>160</ele>
        <time>2020-09-17T13:41:52Z</time>
      </trkpt>
      <trkpt lat="49.17874" lon="1.99907">
        <ele>161</ele>
        <time>2020-09-17T13:42:01Z</time>
      </trkpt>
      <trkpt lat="49.17868" lon="1.99918">
        <ele>163</ele>
        <time>2020-09-17T13:42:14Z</time>
      </trkpt>
      <trkpt lat="49.1786" lon="1.99927">
        <ele>164</ele>
        <time>2020-09-17T13:42:23Z</time>
      </trkpt>
      <trkpt lat="49.1785" lon="1.99936">
        <ele>164</ele>
        <time>2020-09-17T13:42:29Z</time>
      </trkpt>
      <trkpt lat="49.1784" lon="1.99945">
        <ele>164</ele>
        <time>2020-09-17T13:42:35Z</time>
      </trkpt>
      <trkpt lat="49.17831" lon="1.99951">
        <ele>171</ele>
        <time>2020-09-17T13:42:42Z</time>
      </trkpt>
      <trkpt lat="49.17821" lon="1.99957">
        <ele>172</ele>
        <time>2020-09-17T13:42:48Z</time>
      </trkpt>
      <trkpt lat="49.1781" lon="1.99964">
        <ele>172</ele>
        <time>2020-09-17T13:42:54Z</time>
      </trkpt>
      <trkpt lat="49.17801" lon="1.99971">
        <ele>172</ele>
        <time>2020-09-17T13:43:00Z</time>
      </trkpt>
      <trkpt lat="49.17793" lon="1.99979">
        <ele>173</ele>
        <time>2020-09-17T13:43:06Z</time>
      </trkpt>
      <trkpt lat="49.17784" lon="1.99987">
        <ele>173</ele>
        <time>2020-09-17T13:43:13Z</time>
      </trkpt>
      <trkpt lat="49.17778" lon="1.99999">
        <ele>174</ele>
        <time>2020-09-17T13:43:20Z</time>
      </trkpt>
      <trkpt lat="49.17775" lon="2.00014">
        <ele>173</ele>
        <time>2020-09-17T13:43:27Z</time>
      </trkpt>
      <trkpt lat="49.17772" lon="2.00031">
        <ele>172</ele>
        <time>2020-09-17T13:43:33Z</time>
      </trkpt>
      <trkpt lat="49.17769" lon="2.00045">
        <ele>172</ele>
        <time>2020-09-17T13:43:39Z</time>
      </trkpt>
      <trkpt lat="49.17766" lon="2.0006">
        <ele>172</ele>
        <time>2020-09-17T13:43:45Z</time>
      </trkpt>
      <trkpt lat="49.17764" lon="2.00077">
        <ele>172</ele>
        <time>2020-09-17T13:43:53Z</time>
      </trkpt>
      <trkpt lat="49.17762" lon="2.00093">
        <ele>172</ele>
        <time>2020-09-17T13:44:02Z</time>
      </trkpt>
      <trkpt lat="49.17761" lon="2.00108">
        <ele>172</ele>
        <time>2020-09-17T13:44:10Z</time>
      </trkpt>
      <trkpt lat="49.17758" lon="2.00123">
        <ele>172</ele>
        <time>2020-09-17T13:44:22Z</time>
      </trkpt>
      <trkpt lat="49.17749" lon="2.00126">
        <ele>179</ele>
        <time>2020-09-17T13:44:33Z</time>
      </trkpt>
      <trkpt lat="49.17738" lon="2.00127">
        <ele>180</ele>
        <time>2020-09-17T13:44:40Z</time>
      </trkpt>
      <trkpt lat="49.17727" lon="2.00127">
        <ele>180</ele>
        <time>2020-09-17T13:44:46Z</time>
      </trkpt>
      <trkpt lat="49.17717" lon="2.00124">
        <ele>181</ele>
        <time>2020-09-17T13:44:53Z</time>
      </trkpt>
      <trkpt lat="49.17709" lon="2.00115">
        <ele>181</ele>
        <time>2020-09-17T13:45:03Z</time>
      </trkpt>
      <trkpt lat="49.17697" lon="2.00116">
        <ele>182</ele>
        <time>2020-09-17T13:46:55Z</time>
      </trkpt>
      <trkpt lat="49.177" lon="2.00102">
        <ele>181</ele>
        <time>2020-09-17T13:47:31Z</time>
      </trkpt>
      <trkpt lat="49.17704" lon="2.00089">
        <ele>181</ele>
        <time>2020-09-17T13:47:37Z</time>
      </trkpt>
      <trkpt lat="49.17708" lon="2.00074">
        <ele>180</ele>
        <time>2020-09-17T13:47:44Z</time>
      </trkpt>
      <trkpt lat="49.1771" lon="2.00057">
        <ele>180</ele>
        <time>2020-09-17T13:47:52Z</time>
      </trkpt>
      <trkpt lat="49.17712" lon="2.00041">
        <ele>180</ele>
        <time>2020-09-17T13:48:00Z</time>
      </trkpt>
      <trkpt lat="49.17713" lon="2.00026">
        <ele>180</ele>
        <time>2020-09-17T13:48:08Z</time>
      </trkpt>
      <trkpt lat="49.17715" lon="2.00011">
        <ele>180</ele>
        <time>2020-09-17T13:48:16Z</time>
      </trkpt>
      <trkpt lat="49.17716" lon="1.99997">
        <ele>181</ele>
        <time>2020-09-17T13:48:24Z</time>
      </trkpt>
      <trkpt lat="49.17714" lon="1.99981">
        <ele>181</ele>
        <time>2020-09-17T13:48:33Z</time>
      </trkpt>
      <trkpt lat="49.17712" lon="1.9996">
        <ele>182</ele>
        <time>2020-09-17T13:48:41Z</time>
      </trkpt>
      <trkpt lat="49.17714" lon="1.99946">
        <ele>182</ele>
        <time>2020-09-17T13:48:50Z</time>
      </trkpt>
      <trkpt lat="49.17714" lon="1.9993">
        <ele>181</ele>
        <time>2020-09-17T13:48:59Z</time>
      </trkpt>
      <trkpt lat="49.1771" lon="1.99916">
        <ele>179</ele>
        <time>2020-09-17T13:49:08Z</time>
      </trkpt>
      <trkpt lat="49.17701" lon="1.99906">
        <ele>179</ele>
        <time>2020-09-17T13:49:16Z</time>
      </trkpt>
      <trkpt lat="49.17692" lon="1.999">
        <ele>180</ele>
        <time>2020-09-17T13:49:24Z</time>
      </trkpt>
      <trkpt lat="49.17682" lon="1.99901">
        <ele>181</ele>
        <time>2020-09-17T13:49:31Z</time>
      </trkpt>
      <trkpt lat="49.17673" lon="1.99908">
        <ele>183</ele>
        <time>2020-09-17T13:49:37Z</time>
      </trkpt>
      <trkpt lat="49.17661" lon="1.99912">
        <ele>185</ele>
        <time>2020-09-17T13:49:44Z</time>
      </trkpt>
      <trkpt lat="49.17651" lon="1.99918">
        <ele>188</ele>
        <time>2020-09-17T13:49:52Z</time>
      </trkpt>
      <trkpt lat="49.17637" lon="1.99922">
        <ele>189</ele>
        <time>2020-09-17T13:50:04Z</time>
      </trkpt>
      <trkpt lat="49.17627" lon="1.99921">
        <ele>190</ele>
        <time>2020-09-17T13:50:11Z</time>
      </trkpt>
      <trkpt lat="49.17616" lon="1.99921">
        <ele>191</ele>
        <time>2020-09-17T13:50:20Z</time>
      </trkpt>
      <trkpt lat="49.17606" lon="1.99922">
        <ele>191</ele>
        <time>2020-09-17T13:50:30Z</time>
      </trkpt>
      <trkpt lat="49.17597" lon="1.9993">
        <ele>191</ele>
        <time>2020-09-17T13:50:38Z</time>
      </trkpt>
      <trkpt lat="49.17587" lon="1.99933">
        <ele>191</ele>
        <time>2020-09-17T13:50:44Z</time>
      </trkpt>
      <trkpt lat="49.17577" lon="1.99934">
        <ele>196</ele>
        <time>2020-09-17T13:50:51Z</time>
      </trkpt>
      <trkpt lat="49.17567" lon="1.99934">
        <ele>197</ele>
        <time>2020-09-17T13:50:58Z</time>
      </trkpt>
      <trkpt lat="49.17558" lon="1.99928">
        <ele>197</ele>
        <time>2020-09-17T13:51:07Z</time>
      </trkpt>
      <trkpt lat="49.17549" lon="1.99921">
        <ele>198</ele>
        <time>2020-09-17T13:51:14Z</time>
      </trkpt>
      <trkpt lat="49.17539" lon="1.99915">
        <ele>192</ele>
        <time>2020-09-17T13:51:21Z</time>
      </trkpt>
      <trkpt lat="49.17531" lon="1.99907">
        <ele>192</ele>
        <time>2020-09-17T13:51:29Z</time>
      </trkpt>
      <trkpt lat="49.17522" lon="1.99901">
        <ele>193</ele>
        <time>2020-09-17T13:51:41Z</time>
      </trkpt>
      <trkpt lat="49.17513" lon="1.99896">
        <ele>193</ele>
        <time>2020-09-17T13:51:53Z</time>
      </trkpt>
      <trkpt lat="49.17503" lon="1.99898">
        <ele>194</ele>
        <time>2020-09-17T13:52:04Z</time>
      </trkpt>
      <trkpt lat="49.17492" lon="1.999">
        <ele>196</ele>
        <time>2020-09-17T13:52:14Z</time>
      </trkpt>
      <trkpt lat="49.17483" lon="1.99908">
        <ele>195</ele>
        <time>2020-09-17T13:52:23Z</time>
      </trkpt>
      <trkpt lat="49.17473" lon="1.99916">
        <ele>195</ele>
        <time>2020-09-17T13:52:31Z</time>
      </trkpt>
      <trkpt lat="49.17465" lon="1.99925">
        <ele>200</ele>
        <time>2020-09-17T13:52:38Z</time>
      </trkpt>
      <trkpt lat="49.17457" lon="1.99938">
        <ele>200</ele>
        <time>2020-09-17T13:52:47Z</time>
      </trkpt>
      <trkpt lat="49.17448" lon="1.99948">
        <ele>200</ele>
        <time>2020-09-17T13:52:53Z</time>
      </trkpt>
      <trkpt lat="49.17441" lon="1.99958">
        <ele>200</ele>
        <time>2020-09-17T13:53:00Z</time>
      </trkpt>
      <trkpt lat="49.17433" lon="1.99969">
        <ele>200</ele>
        <time>2020-09-17T13:53:07Z</time>
      </trkpt>
      <trkpt lat="49.17428" lon="1.99983">
        <ele>200</ele>
        <time>2020-09-17T13:53:19Z</time>
      </trkpt>
      <trkpt lat="49.17418" lon="1.99997">
        <ele>200</ele>
        <time>2020-09-17T13:54:22Z</time>
      </trkpt>
      <trkpt lat="49.17413" lon="2.0001">
        <ele>199</ele>
        <time>2020-09-17T13:54:31Z</time>
      </trkpt>
      <trkpt lat="49.17405" lon="2.00019">
        <ele>198</ele>
        <time>2020-09-17T13:54:40Z</time>
      </trkpt>
      <trkpt lat="49.17396" lon="2.00027">
        <ele>197</ele>
        <time>2020-09-17T13:54:49Z</time>
      </trkpt>
      <trkpt lat="49.17389" lon="2.0004">
        <ele>197</ele>
        <time>2020-09-17T13:54:59Z</time>
      </trkpt>
      <trkpt lat="49.17379" lon="2.00048">
        <ele>197</ele>
        <time>2020-09-17T13:55:06Z</time>
      </trkpt>
      <trkpt lat="49.17371" lon="2.00059">
        <ele>196</ele>
        <time>2020-09-17T13:55:13Z</time>
      </trkpt>
      <trkpt lat="49.17364" lon="2.00071">
        <ele>196</ele>
        <time>2020-09-17T13:55:22Z</time>
      </trkpt>
      <trkpt lat="49.17356" lon="2.00082">
        <ele>195</ele>
        <time>2020-09-17T13:55:30Z</time>
      </trkpt>
      <trkpt lat="49.17347" lon="2.00088">
        <ele>195</ele>
        <time>2020-09-17T13:55:37Z</time>
      </trkpt>
      <trkpt lat="49.17342" lon="2.00101">
        <ele>196</ele>
        <time>2020-09-17T13:55:44Z</time>
      </trkpt>
      <trkpt lat="49.17334" lon="2.00114">
        <ele>196</ele>
        <time>2020-09-17T13:55:52Z</time>
      </trkpt>
      <trkpt lat="49.17325" lon="2.00122">
        <ele>189</ele>
        <time>2020-09-17T13:55:59Z</time>
      </trkpt>
      <trkpt lat="49.17315" lon="2.00135">
        <ele>189</ele>
        <time>2020-09-17T13:56:08Z</time>
      </trkpt>
      <trkpt lat="49.17306" lon="2.00144">
        <ele>189</ele>
        <time>2020-09-17T13:56:18Z</time>
      </trkpt>
      <trkpt lat="49.17295" lon="2.00146">
        <ele>188</ele>
        <time>2020-09-17T13:56:28Z</time>
      </trkpt>
      <trkpt lat="49.17283" lon="2.00148">
        <ele>187</ele>
        <time>2020-09-17T13:56:34Z</time>
      </trkpt>
      <trkpt lat="49.17273" lon="2.00151">
        <ele>186</ele>
        <time>2020-09-17T13:56:39Z</time>
      </trkpt>
      <trkpt lat="49.17262" lon="2.00157">
        <ele>185</ele>
        <time>2020-09-17T13:56:47Z</time>
      </trkpt>
      <trkpt lat="49.17252" lon="2.00163">
        <ele>185</ele>
        <time>2020-09-17T13:56:55Z</time>
      </trkpt>
      <trkpt lat="49.17242" lon="2.00167">
        <ele>183</ele>
        <time>2020-09-17T13:57:03Z</time>
      </trkpt>
      <trkpt lat="49.17232" lon="2.00174">
        <ele>183</ele>
        <time>2020-09-17T13:57:09Z</time>
      </trkpt>
      <trkpt lat="49.17221" lon="2.00178">
        <ele>182</ele>
        <time>2020-09-17T13:57:15Z</time>
      </trkpt>
      <trkpt lat="49.1721" lon="2.00179">
        <ele>182</ele>
        <time>2020-09-17T13:57:21Z</time>
      </trkpt>
      <trkpt lat="49.17201" lon="2.00185">
        <ele>181</ele>
        <time>2020-09-17T13:57:30Z</time>
      </trkpt>
      <trkpt lat="49.1719" lon="2.00194">
        <ele>181</ele>
        <time>2020-09-17T13:57:54Z</time>
      </trkpt>
      <trkpt lat="49.172" lon="2.00197">
        <ele>182</ele>
        <time>2020-09-17T13:58:44Z</time>
      </trkpt>
      <trkpt lat="49.17199" lon="2.00214">
        <ele>182</ele>
        <time>2020-09-17T13:59:15Z</time>
      </trkpt>
      <trkpt lat="49.17201" lon="2.00229">
        <ele>182</ele>
        <time>2020-09-17T13:59:40Z</time>
      </trkpt>
      <trkpt lat="49.17195" lon="2.00205">
        <ele>182</ele>
        <time>2020-09-17T14:10:47Z</time>
      </trkpt>
      <trkpt lat="49.17193" lon="2.00171">
        <ele>181</ele>
        <time>2020-09-17T14:11:59Z</time>
      </trkpt>
      <trkpt lat="49.17184" lon="2.00179">
        <ele>180</ele>
        <time>2020-09-17T14:12:01Z</time>
      </trkpt>
      <trkpt lat="49.17173" lon="2.0019">
        <ele>180</ele>
        <time>2020-09-17T14:12:06Z</time>
      </trkpt>
      <trkpt lat="49.17169" lon="2.00202">
        <ele>181</ele>
        <time>2020-09-17T14:12:07Z</time>
      </trkpt>
      <trkpt lat="49.17164" lon="2.00219">
        <ele>176</ele>
        <time>2020-09-17T14:12:10Z</time>
      </trkpt>
      <trkpt lat="49.17157" lon="2.00231">
        <ele>177</ele>
        <time>2020-09-17T14:12:22Z</time>
      </trkpt>
      <trkpt lat="49.17149" lon="2.00239">
        <ele>177</ele>
        <time>2020-09-17T14:12:30Z</time>
      </trkpt>
      <trkpt lat="49.17142" lon="2.00249">
        <ele>176</ele>
        <time>2020-09-17T14:12:39Z</time>
      </trkpt>
      <trkpt lat="49.17136" lon="2.00262">
        <ele>176</ele>
        <time>2020-09-17T14:12:47Z</time>
      </trkpt>
      <trkpt lat="49.17131" lon="2.00273">
        <ele>176</ele>
        <time>2020-09-17T14:12:55Z</time>
      </trkpt>
      <trkpt lat="49.17124" lon="2.00285">
        <ele>175</ele>
        <time>2020-09-17T14:13:05Z</time>
      </trkpt>
      <trkpt lat="49.17116" lon="2.00294">
        <ele>175</ele>
        <time>2020-09-17T14:13:15Z</time>
      </trkpt>
      <trkpt lat="49.17108" lon="2.00304">
        <ele>174</ele>
        <time>2020-09-17T14:13:23Z</time>
      </trkpt>
      <trkpt lat="49.171" lon="2.00312">
        <ele>174</ele>
        <time>2020-09-17T14:13:32Z</time>
      </trkpt>
      <trkpt lat="49.17091" lon="2.0032">
        <ele>173</ele>
        <time>2020-09-17T14:13:41Z</time>
      </trkpt>
      <trkpt lat="49.17099" lon="2.00311">
        <ele>174</ele>
        <time>2020-09-17T14:13:57Z</time>
      </trkpt>
      <trkpt lat="49.17105" lon="2.00324">
        <ele>174</ele>
        <time>2020-09-17T14:14:08Z</time>
      </trkpt>
      <trkpt lat="49.17104" lon="2.00339">
        <ele>173</ele>
        <time>2020-09-17T14:14:16Z</time>
      </trkpt>
      <trkpt lat="49.17106" lon="2.00356">
        <ele>174</ele>
        <time>2020-09-17T14:14:25Z</time>
      </trkpt>
      <trkpt lat="49.17109" lon="2.00373">
        <ele>174</ele>
        <time>2020-09-17T14:14:34Z</time>
      </trkpt>
      <trkpt lat="49.17111" lon="2.00387">
        <ele>174</ele>
        <time>2020-09-17T14:14:44Z</time>
      </trkpt>
      <trkpt lat="49.17111" lon="2.00401">
        <ele>173</ele>
        <time>2020-09-17T14:14:52Z</time>
      </trkpt>
      <trkpt lat="49.17112" lon="2.00417">
        <ele>173</ele>
        <time>2020-09-17T14:14:59Z</time>
      </trkpt>
      <trkpt lat="49.17113" lon="2.00433">
        <ele>173</ele>
        <time>2020-09-17T14:15:05Z</time>
      </trkpt>
      <trkpt lat="49.17111" lon="2.00447">
        <ele>173</ele>
        <time>2020-09-17T14:15:14Z</time>
      </trkpt>
      <trkpt lat="49.17112" lon="2.00462">
        <ele>173</ele>
        <time>2020-09-17T14:15:24Z</time>
      </trkpt>
      <trkpt lat="49.17112" lon="2.00478">
        <ele>173</ele>
        <time>2020-09-17T14:15:36Z</time>
      </trkpt>
      <trkpt lat="49.17109" lon="2.00495">
        <ele>172</ele>
        <time>2020-09-17T14:15:42Z</time>
      </trkpt>
      <trkpt lat="49.17108" lon="2.00509">
        <ele>172</ele>
        <time>2020-09-17T14:15:51Z</time>
      </trkpt>
      <trkpt lat="49.1711" lon="2.00526">
        <ele>173</ele>
        <time>2020-09-17T14:15:59Z</time>
      </trkpt>
      <trkpt lat="49.17113" lon="2.00541">
        <ele>173</ele>
        <time>2020-09-17T14:16:07Z</time>
      </trkpt>
      <trkpt lat="49.17116" lon="2.00555">
        <ele>173</ele>
        <time>2020-09-17T14:16:16Z</time>
      </trkpt>
      <trkpt lat="49.17121" lon="2.00568">
        <ele>173</ele>
        <time>2020-09-17T14:16:26Z</time>
      </trkpt>
      <trkpt lat="49.1713" lon="2.00577">
        <ele>174</ele>
        <time>2020-09-17T14:16:35Z</time>
      </trkpt>
      <trkpt lat="49.1714" lon="2.00584">
        <ele>175</ele>
        <time>2020-09-17T14:16:43Z</time>
      </trkpt>
      <trkpt lat="49.17149" lon="2.0059">
        <ele>176</ele>
        <time>2020-09-17T14:16:49Z</time>
      </trkpt>
      <trkpt lat="49.17158" lon="2.00598">
        <ele>177</ele>
        <time>2020-09-17T14:16:56Z</time>
      </trkpt>
      <trkpt lat="49.17168" lon="2.00607">
        <ele>182</ele>
        <time>2020-09-17T14:17:04Z</time>
      </trkpt>
      <trkpt lat="49.17177" lon="2.00617">
        <ele>182</ele>
        <time>2020-09-17T14:17:12Z</time>
      </trkpt>
      <trkpt lat="49.17184" lon="2.0063">
        <ele>182</ele>
        <time>2020-09-17T14:17:20Z</time>
      </trkpt>
      <trkpt lat="49.17191" lon="2.00644">
        <ele>182</ele>
        <time>2020-09-17T14:17:28Z</time>
      </trkpt>
      <trkpt lat="49.17197" lon="2.00655">
        <ele>182</ele>
        <time>2020-09-17T14:17:36Z</time>
      </trkpt>
      <trkpt lat="49.17202" lon="2.00668">
        <ele>183</ele>
        <time>2020-09-17T14:17:44Z</time>
      </trkpt>
      <trkpt lat="49.17209" lon="2.00679">
        <ele>184</ele>
        <time>2020-09-17T14:17:52Z</time>
      </trkpt>
      <trkpt lat="49.17216" lon="2.00691">
        <ele>184</ele>
        <time>2020-09-17T14:18:01Z</time>
      </trkpt>
      <trkpt lat="49.17223" lon="2.00703">
        <ele>185</ele>
        <time>2020-09-17T14:18:11Z</time>
      </trkpt>
      <trkpt lat="49.1723" lon="2.00712">
        <ele>185</ele>
        <time>2020-09-17T14:18:18Z</time>
      </trkpt>
      <trkpt lat="49.17238" lon="2.00722">
        <ele>186</ele>
        <time>2020-09-17T14:18:27Z</time>
      </trkpt>
      <trkpt lat="49.17245" lon="2.00733">
        <ele>187</ele>
        <time>2020-09-17T14:18:36Z</time>
      </trkpt>
      <trkpt lat="49.1725" lon="2.00747">
        <ele>188</ele>
        <time>2020-09-17T14:18:47Z</time>
      </trkpt>
      <trkpt lat="49.17253" lon="2.0076">
        <ele>190</ele>
        <time>2020-09-17T14:18:57Z</time>
      </trkpt>
      <trkpt lat="49.17262" lon="2.00769">
        <ele>191</ele>
        <time>2020-09-17T14:19:07Z</time>
      </trkpt>
      <trkpt lat="49.17271" lon="2.00775">
        <ele>192</ele>
        <time>2020-09-17T14:19:16Z</time>
      </trkpt>
      <trkpt lat="49.1728" lon="2.00783">
        <ele>192</ele>
        <time>2020-09-17T14:19:23Z</time>
      </trkpt>
      <trkpt lat="49.17288" lon="2.00791">
        <ele>192</ele>
        <time>2020-09-17T14:19:31Z</time>
      </trkpt>
      <trkpt lat="49.17296" lon="2.00801">
        <ele>193</ele>
        <time>2020-09-17T14:19:43Z</time>
      </trkpt>
      <trkpt lat="49.17302" lon="2.00811">
        <ele>193</ele>
        <time>2020-09-17T14:19:53Z</time>
      </trkpt>
      <trkpt lat="49.17309" lon="2.00824">
        <ele>193</ele>
        <time>2020-09-17T14:20:02Z</time>
      </trkpt>
      <trkpt lat="49.17315" lon="2.00835">
        <ele>192</ele>
        <time>2020-09-17T14:20:11Z</time>
      </trkpt>
      <trkpt lat="49.17321" lon="2.00847">
        <ele>192</ele>
        <time>2020-09-17T14:20:21Z</time>
      </trkpt>
      <trkpt lat="49.17328" lon="2.00858">
        <ele>192</ele>
        <time>2020-09-17T14:20:29Z</time>
      </trkpt>
      <trkpt lat="49.17336" lon="2.0087">
        <ele>194</ele>
        <time>2020-09-17T14:20:37Z</time>
      </trkpt>
      <trkpt lat="49.17344" lon="2.00881">
        <ele>194</ele>
        <time>2020-09-17T14:20:45Z</time>
      </trkpt>
      <trkpt lat="49.17352" lon="2.00892">
        <ele>194</ele>
        <time>2020-09-17T14:20:54Z</time>
      </trkpt>
      <trkpt lat="49.17358" lon="2.00906">
        <ele>194</ele>
        <time>2020-09-17T14:21:02Z</time>
      </trkpt>
      <trkpt lat="49.17364" lon="2.00917">
        <ele>192</ele>
        <time>2020-09-17T14:21:11Z</time>
      </trkpt>
      <trkpt lat="49.17371" lon="2.00929">
        <ele>193</ele>
        <time>2020-09-17T14:21:19Z</time>
      </trkpt>
      <trkpt lat="49.17379" lon="2.00938">
        <ele>193</ele>
        <time>2020-09-17T14:21:27Z</time>
      </trkpt>
      <trkpt lat="49.17387" lon="2.00948">
        <ele>193</ele>
        <time>2020-09-17T14:21:35Z</time>
      </trkpt>
      <trkpt lat="49.17397" lon="2.00956">
        <ele>194</ele>
        <time>2020-09-17T14:21:43Z</time>
      </trkpt>
      <trkpt lat="49.17405" lon="2.00967">
        <ele>194</ele>
        <time>2020-09-17T14:21:51Z</time>
      </trkpt>
      <trkpt lat="49.17409" lon="2.00981">
        <ele>194</ele>
        <time>2020-09-17T14:21:58Z</time>
      </trkpt>
      <trkpt lat="49.17412" lon="2.00994">
        <ele>195</ele>
        <time>2020-09-17T14:22:06Z</time>
      </trkpt>
      <trkpt lat="49.17412" lon="2.0101">
        <ele>194</ele>
        <time>2020-09-17T14:22:17Z</time>
      </trkpt>
      <trkpt lat="49.17411" lon="2.01024">
        <ele>192</ele>
        <time>2020-09-17T14:22:24Z</time>
      </trkpt>
      <trkpt lat="49.1741" lon="2.01042">
        <ele>191</ele>
        <time>2020-09-17T14:22:33Z</time>
      </trkpt>
      <trkpt lat="49.17409" lon="2.01057">
        <ele>190</ele>
        <time>2020-09-17T14:22:41Z</time>
      </trkpt>
      <trkpt lat="49.17408" lon="2.01072">
        <ele>190</ele>
        <time>2020-09-17T14:22:50Z</time>
      </trkpt>
      <trkpt lat="49.17409" lon="2.01087">
        <ele>189</ele>
        <time>2020-09-17T14:23:01Z</time>
      </trkpt>
      <trkpt lat="49.17414" lon="2.01101">
        <ele>188</ele>
        <time>2020-09-17T14:23:10Z</time>
      </trkpt>
      <trkpt lat="49.17419" lon="2.01114">
        <ele>189</ele>
        <time>2020-09-17T14:23:18Z</time>
      </trkpt>
      <trkpt lat="49.17425" lon="2.01126">
        <ele>188</ele>
        <time>2020-09-17T14:23:28Z</time>
      </trkpt>
      <trkpt lat="49.17433" lon="2.01134">
        <ele>188</ele>
        <time>2020-09-17T14:23:37Z</time>
      </trkpt>
      <trkpt lat="49.17442" lon="2.01142">
        <ele>188</ele>
        <time>2020-09-17T14:23:44Z</time>
      </trkpt>
      <trkpt lat="49.17451" lon="2.01149">
        <ele>187</ele>
        <time>2020-09-17T14:23:50Z</time>
      </trkpt>
      <trkpt lat="49.1746" lon="2.01157">
        <ele>187</ele>
        <time>2020-09-17T14:23:56Z</time>
      </trkpt>
      <trkpt lat="49.17469" lon="2.01163">
        <ele>187</ele>
        <time>2020-09-17T14:24:04Z</time>
      </trkpt>
      <trkpt lat="49.1748" lon="2.01168">
        <ele>182</ele>
        <time>2020-09-17T14:24:13Z</time>
      </trkpt>
      <trkpt lat="49.1749" lon="2.01174">
        <ele>182</ele>
        <time>2020-09-17T14:24:21Z</time>
      </trkpt>
      <trkpt lat="49.175" lon="2.01182">
        <ele>182</ele>
        <time>2020-09-17T14:24:29Z</time>
      </trkpt>
      <trkpt lat="49.17509" lon="2.01189">
        <ele>182</ele>
        <time>2020-09-17T14:24:37Z</time>
      </trkpt>
      <trkpt lat="49.1752" lon="2.01193">
        <ele>182</ele>
        <time>2020-09-17T14:24:45Z</time>
      </trkpt>
      <trkpt lat="49.17531" lon="2.01193">
        <ele>181</ele>
        <time>2020-09-17T14:24:53Z</time>
      </trkpt>
      <trkpt lat="49.1754" lon="2.01192">
        <ele>181</ele>
        <time>2020-09-17T14:24:59Z</time>
      </trkpt>
      <trkpt lat="49.17549" lon="2.0119">
        <ele>182</ele>
        <time>2020-09-17T14:25:05Z</time>
      </trkpt>
      <trkpt lat="49.17559" lon="2.01189">
        <ele>182</ele>
        <time>2020-09-17T14:25:11Z</time>
      </trkpt>
      <trkpt lat="49.17569" lon="2.01189">
        <ele>182</ele>
        <time>2020-09-17T14:25:18Z</time>
      </trkpt>
      <trkpt lat="49.17579" lon="2.01196">
        <ele>182</ele>
        <time>2020-09-17T14:25:26Z</time>
      </trkpt>
      <trkpt lat="49.17586" lon="2.01208">
        <ele>185</ele>
        <time>2020-09-17T14:25:35Z</time>
      </trkpt>
      <trkpt lat="49.17589" lon="2.01223">
        <ele>184</ele>
        <time>2020-09-17T14:25:43Z</time>
      </trkpt>
      <trkpt lat="49.17594" lon="2.01239">
        <ele>183</ele>
        <time>2020-09-17T14:25:51Z</time>
      </trkpt>
      <trkpt lat="49.17595" lon="2.01257">
        <ele>182</ele>
        <time>2020-09-17T14:25:59Z</time>
      </trkpt>
      <trkpt lat="49.17595" lon="2.01273">
        <ele>183</ele>
        <time>2020-09-17T14:26:07Z</time>
      </trkpt>
      <trkpt lat="49.17594" lon="2.01291">
        <ele>184</ele>
        <time>2020-09-17T14:26:15Z</time>
      </trkpt>
      <trkpt lat="49.17593" lon="2.01307">
        <ele>183</ele>
        <time>2020-09-17T14:26:23Z</time>
      </trkpt>
      <trkpt lat="49.17593" lon="2.01322">
        <ele>183</ele>
        <time>2020-09-17T14:26:31Z</time>
      </trkpt>
      <trkpt lat="49.17597" lon="2.01337">
        <ele>183</ele>
        <time>2020-09-17T14:26:40Z</time>
      </trkpt>
      <trkpt lat="49.17602" lon="2.01349">
        <ele>183</ele>
        <time>2020-09-17T14:26:48Z</time>
      </trkpt>
      <trkpt lat="49.17609" lon="2.0136">
        <ele>184</ele>
        <time>2020-09-17T14:26:56Z</time>
      </trkpt>
      <trkpt lat="49.17616" lon="2.01372">
        <ele>184</ele>
        <time>2020-09-17T14:27:04Z</time>
      </trkpt>
      <trkpt lat="49.17623" lon="2.01385">
        <ele>185</ele>
        <time>2020-09-17T14:27:12Z</time>
      </trkpt>
      <trkpt lat="49.17631" lon="2.01397">
        <ele>185</ele>
        <time>2020-09-17T14:27:20Z</time>
      </trkpt>
      <trkpt lat="49.17638" lon="2.01409">
        <ele>185</ele>
        <time>2020-09-17T14:27:28Z</time>
      </trkpt>
      <trkpt lat="49.17643" lon="2.01422">
        <ele>184</ele>
        <time>2020-09-17T14:27:36Z</time>
      </trkpt>
      <trkpt lat="49.17646" lon="2.01437">
        <ele>184</ele>
        <time>2020-09-17T14:27:44Z</time>
      </trkpt>
      <trkpt lat="49.17649" lon="2.01452">
        <ele>184</ele>
        <time>2020-09-17T14:27:53Z</time>
      </trkpt>
      <trkpt lat="49.17653" lon="2.01465">
        <ele>183</ele>
        <time>2020-09-17T14:28:01Z</time>
      </trkpt>
      <trkpt lat="49.17658" lon="2.01478">
        <ele>183</ele>
        <time>2020-09-17T14:28:09Z</time>
      </trkpt>
      <trkpt lat="49.1766" lon="2.01493">
        <ele>184</ele>
        <time>2020-09-17T14:28:18Z</time>
      </trkpt>
      <trkpt lat="49.17663" lon="2.01511">
        <ele>182</ele>
        <time>2020-09-17T14:28:26Z</time>
      </trkpt>
      <trkpt lat="49.17665" lon="2.01525">
        <ele>181</ele>
        <time>2020-09-17T14:28:35Z</time>
      </trkpt>
      <trkpt lat="49.1767" lon="2.01541">
        <ele>187</ele>
        <time>2020-09-17T14:28:44Z</time>
      </trkpt>
      <trkpt lat="49.17673" lon="2.01558">
        <ele>186</ele>
        <time>2020-09-17T14:28:52Z</time>
      </trkpt>
      <trkpt lat="49.17676" lon="2.01574">
        <ele>184</ele>
        <time>2020-09-17T14:29:00Z</time>
      </trkpt>
      <trkpt lat="49.17678" lon="2.01591">
        <ele>183</ele>
        <time>2020-09-17T14:29:08Z</time>
      </trkpt>
      <trkpt lat="49.1768" lon="2.01606">
        <ele>183</ele>
        <time>2020-09-17T14:29:16Z</time>
      </trkpt>
      <trkpt lat="49.17682" lon="2.0162">
        <ele>183</ele>
        <time>2020-09-17T14:29:24Z</time>
      </trkpt>
      <trkpt lat="49.17683" lon="2.01636">
        <ele>183</ele>
        <time>2020-09-17T14:29:31Z</time>
      </trkpt>
      <trkpt lat="49.17685" lon="2.0165">
        <ele>182</ele>
        <time>2020-09-17T14:29:39Z</time>
      </trkpt>
      <trkpt lat="49.17686" lon="2.01666">
        <ele>181</ele>
        <time>2020-09-17T14:29:47Z</time>
      </trkpt>
      <trkpt lat="49.17688" lon="2.01682">
        <ele>181</ele>
        <time>2020-09-17T14:29:55Z</time>
      </trkpt>
      <trkpt lat="49.1769" lon="2.01698">
        <ele>181</ele>
        <time>2020-09-17T14:30:03Z</time>
      </trkpt>
      <trkpt lat="49.17686" lon="2.01711">
        <ele>181</ele>
        <time>2020-09-17T14:30:17Z</time>
      </trkpt>
      <trkpt lat="49.17675" lon="2.01714">
        <ele>180</ele>
        <time>2020-09-17T14:30:25Z</time>
      </trkpt>
      <trkpt lat="49.17665" lon="2.01716">
        <ele>173</ele>
        <time>2020-09-17T14:30:31Z</time>
      </trkpt>
      <trkpt lat="49.17654" lon="2.01717">
        <ele>173</ele>
        <time>2020-09-17T14:30:37Z</time>
      </trkpt>
      <trkpt lat="49.17644" lon="2.01719">
        <ele>172</ele>
        <time>2020-09-17T14:30:43Z</time>
      </trkpt>
      <trkpt lat="49.17634" lon="2.01721">
        <ele>172</ele>
        <time>2020-09-17T14:30:50Z</time>
      </trkpt>
      <trkpt lat="49.17624" lon="2.01723">
        <ele>171</ele>
        <time>2020-09-17T14:30:57Z</time>
      </trkpt>
      <trkpt lat="49.17613" lon="2.01724">
        <ele>170</ele>
        <time>2020-09-17T14:31:05Z</time>
      </trkpt>
      <trkpt lat="49.17604" lon="2.01723">
        <ele>170</ele>
        <time>2020-09-17T14:31:13Z</time>
      </trkpt>
      <trkpt lat="49.17594" lon="2.01723">
        <ele>169</ele>
        <time>2020-09-17T14:31:21Z</time>
      </trkpt>
      <trkpt lat="49.17584" lon="2.01724">
        <ele>169</ele>
        <time>2020-09-17T14:31:29Z</time>
      </trkpt>
      <trkpt lat="49.17574" lon="2.01727">
        <ele>164</ele>
        <time>2020-09-17T14:31:39Z</time>
      </trkpt>
      <trkpt lat="49.17564" lon="2.01731">
        <ele>164</ele>
        <time>2020-09-17T14:31:48Z</time>
      </trkpt>
      <trkpt lat="49.17555" lon="2.01733">
        <ele>164</ele>
        <time>2020-09-17T14:31:58Z</time>
      </trkpt>
      <trkpt lat="49.17545" lon="2.01737">
        <ele>163</ele>
        <time>2020-09-17T14:32:08Z</time>
      </trkpt>
      <trkpt lat="49.17535" lon="2.01743">
        <ele>162</ele>
        <time>2020-09-17T14:32:16Z</time>
      </trkpt>
      <trkpt lat="49.17527" lon="2.01749">
        <ele>161</ele>
        <time>2020-09-17T14:32:24Z</time>
      </trkpt>
      <trkpt lat="49.17517" lon="2.01753">
        <ele>158</ele>
        <time>2020-09-17T14:32:34Z</time>
      </trkpt>
      <trkpt lat="49.17507" lon="2.01757">
        <ele>157</ele>
        <time>2020-09-17T14:32:42Z</time>
      </trkpt>
      <trkpt lat="49.17497" lon="2.01763">
        <ele>154</ele>
        <time>2020-09-17T14:32:56Z</time>
      </trkpt>
      <trkpt lat="49.17494" lon="2.01777">
        <ele>153</ele>
        <time>2020-09-17T14:34:11Z</time>
      </trkpt>
      <trkpt lat="49.17489" lon="2.0179">
        <ele>153</ele>
        <time>2020-09-17T14:34:19Z</time>
      </trkpt>
      <trkpt lat="49.17485" lon="2.01802">
        <ele>153</ele>
        <time>2020-09-17T14:34:27Z</time>
      </trkpt>
      <trkpt lat="49.1748" lon="2.01814">
        <ele>153</ele>
        <time>2020-09-17T14:34:36Z</time>
      </trkpt>
      <trkpt lat="49.17471" lon="2.0182">
        <ele>152</ele>
        <time>2020-09-17T14:34:45Z</time>
      </trkpt>
      <trkpt lat="49.17461" lon="2.01816">
        <ele>151</ele>
        <time>2020-09-17T14:34:55Z</time>
      </trkpt>
      <trkpt lat="49.17453" lon="2.01807">
        <ele>151</ele>
        <time>2020-09-17T14:35:06Z</time>
      </trkpt>
      <trkpt lat="49.17443" lon="2.01804">
        <ele>150</ele>
        <time>2020-09-17T14:35:14Z</time>
      </trkpt>
      <trkpt lat="49.17432" lon="2.01808">
        <ele>149</ele>
        <time>2020-09-17T14:35:21Z</time>
      </trkpt>
      <trkpt lat="49.17422" lon="2.01813">
        <ele>149</ele>
        <time>2020-09-17T14:35:27Z</time>
      </trkpt>
      <trkpt lat="49.17413" lon="2.01819">
        <ele>144</ele>
        <time>2020-09-17T14:35:33Z</time>
      </trkpt>
      <trkpt lat="49.17405" lon="2.01828">
        <ele>145</ele>
        <time>2020-09-17T14:35:41Z</time>
      </trkpt>
      <trkpt lat="49.17397" lon="2.01836">
        <ele>144</ele>
        <time>2020-09-17T14:35:49Z</time>
      </trkpt>
      <trkpt lat="49.17388" lon="2.01843">
        <ele>144</ele>
        <time>2020-09-17T14:35:57Z</time>
      </trkpt>
      <trkpt lat="49.17378" lon="2.01851">
        <ele>143</ele>
        <time>2020-09-17T14:36:05Z</time>
      </trkpt>
      <trkpt lat="49.17369" lon="2.01862">
        <ele>143</ele>
        <time>2020-09-17T14:36:13Z</time>
      </trkpt>
      <trkpt lat="49.17362" lon="2.01874">
        <ele>142</ele>
        <time>2020-09-17T14:36:21Z</time>
      </trkpt>
      <trkpt lat="49.17355" lon="2.01888">
        <ele>142</ele>
        <time>2020-09-17T14:36:29Z</time>
      </trkpt>
      <trkpt lat="49.17349" lon="2.01903">
        <ele>142</ele>
        <time>2020-09-17T14:36:37Z</time>
      </trkpt>
      <trkpt lat="49.17344" lon="2.01918">
        <ele>141</ele>
        <time>2020-09-17T14:36:45Z</time>
      </trkpt>
      <trkpt lat="49.17339" lon="2.01933">
        <ele>141</ele>
        <time>2020-09-17T14:36:53Z</time>
      </trkpt>
      <trkpt lat="49.17335" lon="2.01948">
        <ele>142</ele>
        <time>2020-09-17T14:37:00Z</time>
      </trkpt>
      <trkpt lat="49.17329" lon="2.01962">
        <ele>138</ele>
        <time>2020-09-17T14:37:10Z</time>
      </trkpt>
      <trkpt lat="49.17322" lon="2.01973">
        <ele>138</ele>
        <time>2020-09-17T14:37:20Z</time>
      </trkpt>
      <trkpt lat="49.17314" lon="2.01984">
        <ele>137</ele>
        <time>2020-09-17T14:37:28Z</time>
      </trkpt>
      <trkpt lat="49.17305" lon="2.01993">
        <ele>137</ele>
        <time>2020-09-17T14:37:36Z</time>
      </trkpt>
      <trkpt lat="49.17297" lon="2.02003">
        <ele>135</ele>
        <time>2020-09-17T14:37:43Z</time>
      </trkpt>
      <trkpt lat="49.17292" lon="2.02017">
        <ele>135</ele>
        <time>2020-09-17T14:37:50Z</time>
      </trkpt>
      <trkpt lat="49.17287" lon="2.0203">
        <ele>135</ele>
        <time>2020-09-17T14:37:58Z</time>
      </trkpt>
      <trkpt lat="49.17284" lon="2.02045">
        <ele>135</ele>
        <time>2020-09-17T14:38:07Z</time>
      </trkpt>
      <trkpt lat="49.1728" lon="2.0206">
        <ele>134</ele>
        <time>2020-09-17T14:38:17Z</time>
      </trkpt>
      <trkpt lat="49.17278" lon="2.02075">
        <ele>134</ele>
        <time>2020-09-17T14:38:24Z</time>
      </trkpt>
      <trkpt lat="49.17275" lon="2.02091">
        <ele>132</ele>
        <time>2020-09-17T14:38:30Z</time>
      </trkpt>
      <trkpt lat="49.17272" lon="2.02106">
        <ele>132</ele>
        <time>2020-09-17T14:38:36Z</time>
      </trkpt>
      <trkpt lat="49.17268" lon="2.02122">
        <ele>131</ele>
        <time>2020-09-17T14:38:42Z</time>
      </trkpt>
      <trkpt lat="49.17265" lon="2.02137">
        <ele>131</ele>
        <time>2020-09-17T14:38:49Z</time>
      </trkpt>
      <trkpt lat="49.17262" lon="2.02152">
        <ele>130</ele>
        <time>2020-09-17T14:38:56Z</time>
      </trkpt>
      <trkpt lat="49.17258" lon="2.02166">
        <ele>128</ele>
        <time>2020-09-17T14:39:04Z</time>
      </trkpt>
      <trkpt lat="49.17258" lon="2.02181">
        <ele>128</ele>
        <time>2020-09-17T14:39:12Z</time>
      </trkpt>
      <trkpt lat="49.1726" lon="2.02196">
        <ele>128</ele>
        <time>2020-09-17T14:39:20Z</time>
      </trkpt>
      <trkpt lat="49.17262" lon="2.0221">
        <ele>128</ele>
        <time>2020-09-17T14:39:26Z</time>
      </trkpt>
      <trkpt lat="49.17264" lon="2.02225">
        <ele>127</ele>
        <time>2020-09-17T14:39:34Z</time>
      </trkpt>
      <trkpt lat="49.17263" lon="2.02242">
        <ele>126</ele>
        <time>2020-09-17T14:39:42Z</time>
      </trkpt>
      <trkpt lat="49.1726" lon="2.02254">
        <ele>125</ele>
        <time>2020-09-17T14:39:48Z</time>
      </trkpt>
      <trkpt lat="49.17257" lon="2.02271">
        <ele>125</ele>
        <time>2020-09-17T14:39:56Z</time>
      </trkpt>
      <trkpt lat="49.17254" lon="2.02288">
        <ele>125</ele>
        <time>2020-09-17T14:40:04Z</time>
      </trkpt>
      <trkpt lat="49.17246" lon="2.02302">
        <ele>124</ele>
        <time>2020-09-17T14:40:12Z</time>
      </trkpt>
      <trkpt lat="49.17238" lon="2.02311">
        <ele>124</ele>
        <time>2020-09-17T14:40:20Z</time>
      </trkpt>
      <trkpt lat="49.17228" lon="2.02321">
        <ele>124</ele>
        <time>2020-09-17T14:40:28Z</time>
      </trkpt>
      <trkpt lat="49.17219" lon="2.02329">
        <ele>124</ele>
        <time>2020-09-17T14:40:36Z</time>
      </trkpt>
      <trkpt lat="49.17209" lon="2.02336">
        <ele>123</ele>
        <time>2020-09-17T14:40:43Z</time>
      </trkpt>
      <trkpt lat="49.172" lon="2.02344">
        <ele>123</ele>
        <time>2020-09-17T14:40:51Z</time>
      </trkpt>
      <trkpt lat="49.17191" lon="2.02352">
        <ele>123</ele>
        <time>2020-09-17T14:40:58Z</time>
      </trkpt>
      <trkpt lat="49.17182" lon="2.02361">
        <ele>123</ele>
        <time>2020-09-17T14:41:06Z</time>
      </trkpt>
      <trkpt lat="49.17176" lon="2.02373">
        <ele>123</ele>
        <time>2020-09-17T14:41:14Z</time>
      </trkpt>
      <trkpt lat="49.17168" lon="2.02386">
        <ele>123</ele>
        <time>2020-09-17T14:41:22Z</time>
      </trkpt>
      <trkpt lat="49.17161" lon="2.02398">
        <ele>123</ele>
        <time>2020-09-17T14:41:30Z</time>
      </trkpt>
      <trkpt lat="49.17154" lon="2.0241">
        <ele>123</ele>
        <time>2020-09-17T14:41:38Z</time>
      </trkpt>
      <trkpt lat="49.17147" lon="2.02421">
        <ele>122</ele>
        <time>2020-09-17T14:41:46Z</time>
      </trkpt>
      <trkpt lat="49.17142" lon="2.02435">
        <ele>122</ele>
        <time>2020-09-17T14:41:54Z</time>
      </trkpt>
      <trkpt lat="49.17137" lon="2.02448">
        <ele>122</ele>
        <time>2020-09-17T14:42:00Z</time>
      </trkpt>
      <trkpt lat="49.17131" lon="2.02462">
        <ele>122</ele>
        <time>2020-09-17T14:42:08Z</time>
      </trkpt>
      <trkpt lat="49.17125" lon="2.02475">
        <ele>122</ele>
        <time>2020-09-17T14:42:16Z</time>
      </trkpt>
      <trkpt lat="49.17116" lon="2.02485">
        <ele>121</ele>
        <time>2020-09-17T14:42:24Z</time>
      </trkpt>
      <trkpt lat="49.17108" lon="2.02496">
        <ele>121</ele>
        <time>2020-09-17T14:42:31Z</time>
      </trkpt>
      <trkpt lat="49.17101" lon="2.02507">
        <ele>120</ele>
        <time>2020-09-17T14:42:39Z</time>
      </trkpt>
      <trkpt lat="49.17093" lon="2.02518">
        <ele>120</ele>
        <time>2020-09-17T14:42:46Z</time>
      </trkpt>
      <trkpt lat="49.17086" lon="2.02529">
        <ele>120</ele>
        <time>2020-09-17T14:42:53Z</time>
      </trkpt>
      <trkpt lat="49.17079" lon="2.0254">
        <ele>119</ele>
        <time>2020-09-17T14:43:01Z</time>
      </trkpt>
      <trkpt lat="49.17073" lon="2.02552">
        <ele>119</ele>
        <time>2020-09-17T14:43:07Z</time>
      </trkpt>
      <trkpt lat="49.17066" lon="2.02565">
        <ele>119</ele>
        <time>2020-09-17T14:43:14Z</time>
      </trkpt>
      <trkpt lat="49.17059" lon="2.02578">
        <ele>119</ele>
        <time>2020-09-17T14:43:22Z</time>
      </trkpt>
      <trkpt lat="49.17053" lon="2.02592">
        <ele>119</ele>
        <time>2020-09-17T14:43:30Z</time>
      </trkpt>
      <trkpt lat="49.17048" lon="2.02605">
        <ele>119</ele>
        <time>2020-09-17T14:43:38Z</time>
      </trkpt>
      <trkpt lat="49.17042" lon="2.02619">
        <ele>119</ele>
        <time>2020-09-17T14:43:46Z</time>
      </trkpt>
      <trkpt lat="49.17036" lon="2.02632">
        <ele>119</ele>
        <time>2020-09-17T14:43:54Z</time>
      </trkpt>
      <trkpt lat="49.17035" lon="2.02646">
        <ele>119</ele>
        <time>2020-09-17T14:44:07Z</time>
      </trkpt>
      <trkpt lat="49.17036" lon="2.02662">
        <ele>120</ele>
        <time>2020-09-17T14:44:16Z</time>
      </trkpt>
      <trkpt lat="49.17043" lon="2.02674">
        <ele>122</ele>
        <time>2020-09-17T14:44:23Z</time>
      </trkpt>
      <trkpt lat="49.17046" lon="2.0269">
        <ele>122</ele>
        <time>2020-09-17T14:44:31Z</time>
      </trkpt>
      <trkpt lat="49.17049" lon="2.02707">
        <ele>123</ele>
        <time>2020-09-17T14:44:39Z</time>
      </trkpt>
      <trkpt lat="49.1705" lon="2.02722">
        <ele>123</ele>
        <time>2020-09-17T14:44:46Z</time>
      </trkpt>
      <trkpt lat="49.17052" lon="2.02736">
        <ele>123</ele>
        <time>2020-09-17T14:45:25Z</time>
      </trkpt>
      <trkpt lat="49.1706" lon="2.02746">
        <ele>123</ele>
        <time>2020-09-17T14:45:36Z</time>
      </trkpt>
      <trkpt lat="49.17065" lon="2.0276">
        <ele>126</ele>
        <time>2020-09-17T14:45:45Z</time>
      </trkpt>
      <trkpt lat="49.17069" lon="2.02774">
        <ele>127</ele>
        <time>2020-09-17T14:45:54Z</time>
      </trkpt>
      <trkpt lat="49.17073" lon="2.02789">
        <ele>128</ele>
        <time>2020-09-17T14:46:02Z</time>
      </trkpt>
      <trkpt lat="49.17076" lon="2.02804">
        <ele>128</ele>
        <time>2020-09-17T14:46:11Z</time>
      </trkpt>
      <trkpt lat="49.17076" lon="2.02819">
        <ele>128</ele>
        <time>2020-09-17T14:46:21Z</time>
      </trkpt>
      <trkpt lat="49.17076" lon="2.02834">
        <ele>129</ele>
        <time>2020-09-17T14:46:30Z</time>
      </trkpt>
      <trkpt lat="49.17076" lon="2.0285">
        <ele>131</ele>
        <time>2020-09-17T14:46:39Z</time>
      </trkpt>
      <trkpt lat="49.17076" lon="2.02867">
        <ele>132</ele>
        <time>2020-09-17T14:46:47Z</time>
      </trkpt>
      <trkpt lat="49.17076" lon="2.02883">
        <ele>132</ele>
        <time>2020-09-17T14:46:55Z</time>
      </trkpt>
      <trkpt lat="49.17076" lon="2.02898">
        <ele>132</ele>
        <time>2020-09-17T14:47:03Z</time>
      </trkpt>
      <trkpt lat="49.17076" lon="2.02913">
        <ele>132</ele>
        <time>2020-09-17T14:47:10Z</time>
      </trkpt>
      <trkpt lat="49.17075" lon="2.0293">
        <ele>132</ele>
        <time>2020-09-17T14:47:18Z</time>
      </trkpt>
      <trkpt lat="49.17073" lon="2.02947">
        <ele>133</ele>
        <time>2020-09-17T14:47:26Z</time>
      </trkpt>
      <trkpt lat="49.17073" lon="2.02964">
        <ele>133</ele>
        <time>2020-09-17T14:47:34Z</time>
      </trkpt>
      <trkpt lat="49.17071" lon="2.0298">
        <ele>133</ele>
        <time>2020-09-17T14:47:42Z</time>
      </trkpt>
      <trkpt lat="49.17069" lon="2.02995">
        <ele>132</ele>
        <time>2020-09-17T14:47:50Z</time>
      </trkpt>
      <trkpt lat="49.17068" lon="2.03011">
        <ele>133</ele>
        <time>2020-09-17T14:47:59Z</time>
      </trkpt>
      <trkpt lat="49.17068" lon="2.03026">
        <ele>133</ele>
        <time>2020-09-17T14:48:07Z</time>
      </trkpt>
      <trkpt lat="49.17068" lon="2.0304">
        <ele>134</ele>
        <time>2020-09-17T14:48:15Z</time>
      </trkpt>
      <trkpt lat="49.17069" lon="2.03056">
        <ele>134</ele>
        <time>2020-09-17T14:48:25Z</time>
      </trkpt>
      <trkpt lat="49.1707" lon="2.03071">
        <ele>135</ele>
        <time>2020-09-17T14:48:34Z</time>
      </trkpt>
      <trkpt lat="49.17072" lon="2.03086">
        <ele>136</ele>
        <time>2020-09-17T14:48:44Z</time>
      </trkpt>
      <trkpt lat="49.17074" lon="2.03102">
        <ele>136</ele>
        <time>2020-09-17T14:48:54Z</time>
      </trkpt>
      <trkpt lat="49.17076" lon="2.03116">
        <ele>137</ele>
        <time>2020-09-17T14:49:02Z</time>
      </trkpt>
      <trkpt lat="49.17077" lon="2.03133">
        <ele>138</ele>
        <time>2020-09-17T14:49:10Z</time>
      </trkpt>
      <trkpt lat="49.17077" lon="2.03149">
        <ele>139</ele>
        <time>2020-09-17T14:49:20Z</time>
      </trkpt>
      <trkpt lat="49.17077" lon="2.03164">
        <ele>140</ele>
        <time>2020-09-17T14:49:28Z</time>
      </trkpt>
      <trkpt lat="49.17078" lon="2.03181">
        <ele>141</ele>
        <time>2020-09-17T14:49:37Z</time>
      </trkpt>
      <trkpt lat="49.1708" lon="2.03197">
        <ele>141</ele>
        <time>2020-09-17T14:49:47Z</time>
      </trkpt>
      <trkpt lat="49.17081" lon="2.03212">
        <ele>142</ele>
        <time>2020-09-17T14:49:55Z</time>
      </trkpt>
      <trkpt lat="49.17081" lon="2.03228">
        <ele>142</ele>
        <time>2020-09-17T14:50:05Z</time>
      </trkpt>
      <trkpt lat="49.17084" lon="2.03242">
        <ele>144</ele>
        <time>2020-09-17T14:50:15Z</time>
      </trkpt>
      <trkpt lat="49.17085" lon="2.03258">
        <ele>145</ele>
        <time>2020-09-17T14:50:28Z</time>
      </trkpt>
      <trkpt lat="49.17086" lon="2.03272">
        <ele>145</ele>
        <time>2020-09-17T14:50:40Z</time>
      </trkpt>
      <trkpt lat="49.17088" lon="2.03287">
        <ele>145</ele>
        <time>2020-09-17T14:50:48Z</time>
      </trkpt>
      <trkpt lat="49.1709" lon="2.03303">
        <ele>146</ele>
        <time>2020-09-17T14:50:56Z</time>
      </trkpt>
      <trkpt lat="49.1709" lon="2.03318">
        <ele>147</ele>
        <time>2020-09-17T14:51:05Z</time>
      </trkpt>
      <trkpt lat="49.17091" lon="2.03334">
        <ele>150</ele>
        <time>2020-09-17T14:51:13Z</time>
      </trkpt>
      <trkpt lat="49.17093" lon="2.0335">
        <ele>150</ele>
        <time>2020-09-17T14:51:20Z</time>
      </trkpt>
      <trkpt lat="49.17092" lon="2.03367">
        <ele>150</ele>
        <time>2020-09-17T14:51:28Z</time>
      </trkpt>
      <trkpt lat="49.17089" lon="2.03383">
        <ele>151</ele>
        <time>2020-09-17T14:51:35Z</time>
      </trkpt>
      <trkpt lat="49.17084" lon="2.03398">
        <ele>154</ele>
        <time>2020-09-17T14:51:41Z</time>
      </trkpt>
      <trkpt lat="49.17077" lon="2.03412">
        <ele>157</ele>
        <time>2020-09-17T14:51:47Z</time>
      </trkpt>
      <trkpt lat="49.17068" lon="2.03422">
        <ele>159</ele>
        <time>2020-09-17T14:51:53Z</time>
      </trkpt>
      <trkpt lat="49.1706" lon="2.03431">
        <ele>159</ele>
        <time>2020-09-17T14:51:59Z</time>
      </trkpt>
      <trkpt lat="49.17056" lon="2.03445">
        <ele>159</ele>
        <time>2020-09-17T14:52:08Z</time>
      </trkpt>
      <trkpt lat="49.1706" lon="2.03459">
        <ele>160</ele>
        <time>2020-09-17T14:52:22Z</time>
      </trkpt>
      <trkpt lat="49.17063" lon="2.03473">
        <ele>160</ele>
        <time>2020-09-17T14:52:35Z</time>
      </trkpt>
      <trkpt lat="49.17063" lon="2.03488">
        <ele>161</ele>
        <time>2020-09-17T14:52:45Z</time>
      </trkpt>
      <trkpt lat="49.17066" lon="2.03503">
        <ele>163</ele>
        <time>2020-09-17T14:52:56Z</time>
      </trkpt>
      <trkpt lat="49.17068" lon="2.03519">
        <ele>162</ele>
        <time>2020-09-17T14:53:06Z</time>
      </trkpt>
      <trkpt lat="49.17068" lon="2.03534">
        <ele>162</ele>
        <time>2020-09-17T14:53:15Z</time>
      </trkpt>
      <trkpt lat="49.17068" lon="2.0355">
        <ele>162</ele>
        <time>2020-09-17T14:53:24Z</time>
      </trkpt>
      <trkpt lat="49.17066" lon="2.03566">
        <ele>163</ele>
        <time>2020-09-17T14:53:34Z</time>
      </trkpt>
      <trkpt lat="49.17065" lon="2.03581">
        <ele>163</ele>
        <time>2020-09-17T14:53:42Z</time>
      </trkpt>
      <trkpt lat="49.17064" lon="2.03597">
        <ele>163</ele>
        <time>2020-09-17T14:53:51Z</time>
      </trkpt>
      <trkpt lat="49.17065" lon="2.03612">
        <ele>163</ele>
        <time>2020-09-17T14:53:59Z</time>
      </trkpt>
      <trkpt lat="49.17065" lon="2.03628">
        <ele>162</ele>
        <time>2020-09-17T14:54:08Z</time>
      </trkpt>
      <trkpt lat="49.17064" lon="2.03645">
        <ele>163</ele>
        <time>2020-09-17T14:54:17Z</time>
      </trkpt>
      <trkpt lat="49.17063" lon="2.03662">
        <ele>163</ele>
        <time>2020-09-17T14:54:24Z</time>
      </trkpt>
      <trkpt lat="49.17063" lon="2.03679">
        <ele>162</ele>
        <time>2020-09-17T14:54:32Z</time>
      </trkpt>
      <trkpt lat="49.17064" lon="2.03695">
        <ele>161</ele>
        <time>2020-09-17T14:54:39Z</time>
      </trkpt>
      <trkpt lat="49.17066" lon="2.0371">
        <ele>161</ele>
        <time>2020-09-17T14:54:45Z</time>
      </trkpt>
      <trkpt lat="49.17068" lon="2.03726">
        <ele>161</ele>
        <time>2020-09-17T14:54:53Z</time>
      </trkpt>
      <trkpt lat="49.17071" lon="2.03742">
        <ele>161</ele>
        <time>2020-09-17T14:55:02Z</time>
      </trkpt>
      <trkpt lat="49.17073" lon="2.03758">
        <ele>160</ele>
        <time>2020-09-17T14:55:10Z</time>
      </trkpt>
      <trkpt lat="49.17076" lon="2.03773">
        <ele>159</ele>
        <time>2020-09-17T14:55:16Z</time>
      </trkpt>
      <trkpt lat="49.1708" lon="2.03788">
        <ele>159</ele>
        <time>2020-09-17T14:55:23Z</time>
      </trkpt>
      <trkpt lat="49.17084" lon="2.03804">
        <ele>160</ele>
        <time>2020-09-17T14:55:31Z</time>
      </trkpt>
      <trkpt lat="49.17088" lon="2.0382">
        <ele>160</ele>
        <time>2020-09-17T14:55:39Z</time>
      </trkpt>
      <trkpt lat="49.17092" lon="2.03837">
        <ele>160</ele>
        <time>2020-09-17T14:55:47Z</time>
      </trkpt>
      <trkpt lat="49.17098" lon="2.03849">
        <ele>160</ele>
        <time>2020-09-17T14:55:56Z</time>
      </trkpt>
      <trkpt lat="49.17104" lon="2.03859">
        <ele>160</ele>
        <time>2020-09-17T14:56:04Z</time>
      </trkpt>
      <trkpt lat="49.17112" lon="2.03871">
        <ele>160</ele>
        <time>2020-09-17T14:56:12Z</time>
      </trkpt>
      <trkpt lat="49.17118" lon="2.03881">
        <ele>161</ele>
        <time>2020-09-17T14:56:18Z</time>
      </trkpt>
      <trkpt lat="49.17119" lon="2.03898">
        <ele>161</ele>
        <time>2020-09-17T14:56:24Z</time>
      </trkpt>
      <trkpt lat="49.17119" lon="2.03915">
        <ele>161</ele>
        <time>2020-09-17T14:56:30Z</time>
      </trkpt>
      <trkpt lat="49.1712" lon="2.03929">
        <ele>162</ele>
        <time>2020-09-17T14:56:37Z</time>
      </trkpt>
      <trkpt lat="49.17125" lon="2.03942">
        <ele>162</ele>
        <time>2020-09-17T14:56:45Z</time>
      </trkpt>
      <trkpt lat="49.17133" lon="2.03949">
        <ele>163</ele>
        <time>2020-09-17T14:56:53Z</time>
      </trkpt>
      <trkpt lat="49.17143" lon="2.03954">
        <ele>163</ele>
        <time>2020-09-17T14:57:02Z</time>
      </trkpt>
      <trkpt lat="49.17154" lon="2.03957">
        <ele>164</ele>
        <time>2020-09-17T14:57:09Z</time>
      </trkpt>
      <trkpt lat="49.17164" lon="2.0396">
        <ele>164</ele>
        <time>2020-09-17T14:57:17Z</time>
      </trkpt>
      <trkpt lat="49.17173" lon="2.03965">
        <ele>167</ele>
        <time>2020-09-17T14:57:25Z</time>
      </trkpt>
      <trkpt lat="49.17183" lon="2.0397">
        <ele>167</ele>
        <time>2020-09-17T14:57:33Z</time>
      </trkpt>
      <trkpt lat="49.17192" lon="2.03977">
        <ele>167</ele>
        <time>2020-09-17T14:57:41Z</time>
      </trkpt>
      <trkpt lat="49.17202" lon="2.03992">
        <ele>167</ele>
        <time>2020-09-17T14:57:49Z</time>
      </trkpt>
      <trkpt lat="49.17211" lon="2.04001">
        <ele>168</ele>
        <time>2020-09-17T14:57:59Z</time>
      </trkpt>
      <trkpt lat="49.17222" lon="2.04009">
        <ele>168</ele>
        <time>2020-09-17T14:58:06Z</time>
      </trkpt>
      <trkpt lat="49.1723" lon="2.04019">
        <ele>168</ele>
        <time>2020-09-17T14:58:14Z</time>
      </trkpt>
      <trkpt lat="49.17237" lon="2.04029">
        <ele>168</ele>
        <time>2020-09-17T14:58:23Z</time>
      </trkpt>
      <trkpt lat="49.17244" lon="2.0404">
        <ele>168</ele>
        <time>2020-09-17T14:58:31Z</time>
      </trkpt>
      <trkpt lat="49.17251" lon="2.04052">
        <ele>166</ele>
        <time>2020-09-17T14:58:39Z</time>
      </trkpt>
      <trkpt lat="49.17258" lon="2.04065">
        <ele>166</ele>
        <time>2020-09-17T14:58:46Z</time>
      </trkpt>
      <trkpt lat="49.17264" lon="2.04076">
        <ele>166</ele>
        <time>2020-09-17T14:58:52Z</time>
      </trkpt>
      <trkpt lat="49.1727" lon="2.04089">
        <ele>165</ele>
        <time>2020-09-17T14:58:59Z</time>
      </trkpt>
      <trkpt lat="49.17274" lon="2.04104">
        <ele>164</ele>
        <time>2020-09-17T14:59:07Z</time>
      </trkpt>
      <trkpt lat="49.17279" lon="2.0412">
        <ele>163</ele>
        <time>2020-09-17T14:59:15Z</time>
      </trkpt>
      <trkpt lat="49.17284" lon="2.04135">
        <ele>163</ele>
        <time>2020-09-17T14:59:23Z</time>
      </trkpt>
      <trkpt lat="49.17288" lon="2.0415">
        <ele>163</ele>
        <time>2020-09-17T14:59:30Z</time>
      </trkpt>
      <trkpt lat="49.17293" lon="2.04165">
        <ele>162</ele>
        <time>2020-09-17T14:59:38Z</time>
      </trkpt>
      <trkpt lat="49.17297" lon="2.0418">
        <ele>160</ele>
        <time>2020-09-17T14:59:46Z</time>
      </trkpt>
      <trkpt lat="49.17301" lon="2.04195">
        <ele>160</ele>
        <time>2020-09-17T14:59:54Z</time>
      </trkpt>
      <trkpt lat="49.17303" lon="2.04211">
        <ele>159</ele>
        <time>2020-09-17T15:00:02Z</time>
      </trkpt>
      <trkpt lat="49.17306" lon="2.04226">
        <ele>159</ele>
        <time>2020-09-17T15:00:09Z</time>
      </trkpt>
      <trkpt lat="49.17308" lon="2.04243">
        <ele>158</ele>
        <time>2020-09-17T15:00:17Z</time>
      </trkpt>
      <trkpt lat="49.1731" lon="2.04261">
        <ele>155</ele>
        <time>2020-09-17T15:00:25Z</time>
      </trkpt>
      <trkpt lat="49.17313" lon="2.04277">
        <ele>155</ele>
        <time>2020-09-17T15:00:33Z</time>
      </trkpt>
      <trkpt lat="49.17313" lon="2.04292">
        <ele>154</ele>
        <time>2020-09-17T15:00:43Z</time>
      </trkpt>
      <trkpt lat="49.17314" lon="2.04307">
        <ele>154</ele>
        <time>2020-09-17T15:01:37Z</time>
      </trkpt>
      <trkpt lat="49.17314" lon="2.04323">
        <ele>153</ele>
        <time>2020-09-17T15:01:43Z</time>
      </trkpt>
      <trkpt lat="49.17316" lon="2.04338">
        <ele>151</ele>
        <time>2020-09-17T15:01:49Z</time>
      </trkpt>
      <trkpt lat="49.17316" lon="2.04352">
        <ele>151</ele>
        <time>2020-09-17T15:01:57Z</time>
      </trkpt>
      <trkpt lat="49.17317" lon="2.04368">
        <ele>150</ele>
        <time>2020-09-17T15:02:06Z</time>
      </trkpt>
      <trkpt lat="49.17317" lon="2.04385">
        <ele>150</ele>
        <time>2020-09-17T15:02:13Z</time>
      </trkpt>
      <trkpt lat="49.17319" lon="2.04402">
        <ele>150</ele>
        <time>2020-09-17T15:02:21Z</time>
      </trkpt>
      <trkpt lat="49.17321" lon="2.04418">
        <ele>148</ele>
        <time>2020-09-17T15:02:29Z</time>
      </trkpt>
      <trkpt lat="49.17323" lon="2.04434">
        <ele>148</ele>
        <time>2020-09-17T15:02:37Z</time>
      </trkpt>
      <trkpt lat="49.17324" lon="2.04449">
        <ele>148</ele>
        <time>2020-09-17T15:02:45Z</time>
      </trkpt>
      <trkpt lat="49.17325" lon="2.04465">
        <ele>148</ele>
        <time>2020-09-17T15:02:52Z</time>
      </trkpt>
      <trkpt lat="49.17327" lon="2.04482">
        <ele>148</ele>
        <time>2020-09-17T15:03:00Z</time>
      </trkpt>
      <trkpt lat="49.17329" lon="2.04498">
        <ele>148</ele>
        <time>2020-09-17T15:03:08Z</time>
      </trkpt>
      <trkpt lat="49.17329" lon="2.04513">
        <ele>147</ele>
        <time>2020-09-17T15:03:16Z</time>
      </trkpt>
      <trkpt lat="49.17333" lon="2.04527">
        <ele>147</ele>
        <time>2020-09-17T15:03:25Z</time>
      </trkpt>
      <trkpt lat="49.17338" lon="2.04539">
        <ele>147</ele>
        <time>2020-09-17T15:03:36Z</time>
      </trkpt>
    </trkseg>
  </trk>
</gpx>